AWC663 NTAA-YBCS

Flight info

Callsign AWC663
Flight time 9h 26m
Altitude 34000
Route MOSMA4E MOSMA DCT TAF B578 LTO DCT NONUM
Aircraft A21N/M-SDE2E3FGHIRWXY/LB1

Departure

Time 2026-04-07 08:49
Airport Fa'a'ā International Airport (NTAA)

Arrival

Time 2026-04-07 18:16
Airport Cairns International Airport (YBCS)
Time Latitude Longitude Altitude Speed Heading
2026-04-07 08:29 -17.55888 -149.61046 27 ft 0 kts 114°
2026-04-07 08:41 -17.55886 -149.61050 27 ft 2 kts 114°
2026-04-07 08:42 -17.55878 -149.61069 27 ft 3 kts 111°
2026-04-07 08:42 -17.55872 -149.61088 27 ft 3 kts 107°
2026-04-07 08:42 -17.55866 -149.61109 27 ft 3 kts 102°
2026-04-07 08:42 -17.55863 -149.61130 27 ft 3 kts 93°
2026-04-07 08:43 -17.55864 -149.61151 27 ft 3 kts 76°
2026-04-07 08:43 -17.55869 -149.61165 27 ft 1 kts 55°
2026-04-07 08:43 -17.55870 -149.61166 27 ft 0 kts 54°
2026-04-07 08:45 -17.55864 -149.61158 27 ft 5 kts 54°
2026-04-07 08:45 -17.55836 -149.61118 27 ft 8 kts 53°
2026-04-07 08:45 -17.55784 -149.61078 27 ft 11 kts
2026-04-07 08:46 -17.55707 -149.61114 30 ft 14 kts 325°
2026-04-07 08:46 -17.55703 -149.61206 28 ft 17 kts 231°
2026-04-07 08:46 -17.55775 -149.61314 24 ft 20 kts 234°
2026-04-07 08:46 -17.55857 -149.61435 25 ft 23 kts 234°
2026-04-07 08:47 -17.55956 -149.61578 26 ft 26 kts 233°
2026-04-07 08:47 -17.56069 -149.61738 28 ft 28 kts 234°
2026-04-07 08:47 -17.56182 -149.61903 28 ft 19 kts 234°
2026-04-07 08:47 -17.56218 -149.62004 28 ft 9 kts 265°
2026-04-07 08:48 -17.56249 -149.61995 28 ft 10 kts 68°
2026-04-07 08:48 -17.56223 -149.61962 28 ft 0 kts 54°
2026-04-07 08:48 -17.56183 -149.61903 28 ft 38 kts 54°
2026-04-07 08:48 -17.55886 -149.61467 29 ft 107 kts 54°
2026-04-07 08:49 -17.55333 -149.60665 28 ft 162 kts 53°
2026-04-07 08:49 -17.54618 -149.59645 388 ft 172 kts 56°
2026-04-07 08:49 -17.53882 -149.58675 1017 ft 172 kts 43°
2026-04-07 08:49 -17.52732 -149.58269 1579 ft 183 kts
2026-04-07 08:50 -17.51472 -149.58703 1923 ft 208 kts 325°
2026-04-07 08:50 -17.50665 -149.60009 2346 ft 231 kts 285°
2026-04-07 08:50 -17.50566 -149.61782 2743 ft 257 kts 268°
2026-04-07 08:50 -17.50625 -149.63718 3310 ft 273 kts 269°
2026-04-07 08:51 -17.50670 -149.65727 4118 ft 278 kts 270°
2026-04-07 08:51 -17.50684 -149.67756 5004 ft 279 kts 273°
2026-04-07 08:51 -17.50168 -149.69710 5788 ft 281 kts 302°
2026-04-07 08:51 -17.48835 -149.71176 6591 ft 280 kts 328°
2026-04-07 08:52 -17.47029 -149.71968 7330 ft 284 kts 342°
2026-04-07 08:52 -17.45209 -149.72741 8039 ft 289 kts 332°
2026-04-07 08:52 -17.43513 -149.73904 8775 ft 293 kts 320°
2026-04-07 08:52 -17.41973 -149.75332 9506 ft 298 kts 315°
2026-04-07 08:53 -17.40447 -149.76831 10191 ft 305 kts 315°
2026-04-07 08:53 -17.38852 -149.78402 10548 ft 323 kts 315°
2026-04-07 08:53 -17.37167 -149.80057 10903 ft 340 kts 315°
2026-04-07 08:53 -17.35471 -149.81784 11502 ft 345 kts 310°
2026-04-07 08:54 -17.34201 -149.83903 12206 ft 345 kts 289°
2026-04-07 08:54 -17.33767 -149.86359 12896 ft 344 kts 268°
2026-04-07 08:54 -17.34229 -149.88809 13563 ft 346 kts 249°
2026-04-07 08:54 -17.35154 -149.91157 14192 ft 350 kts 246°
2026-04-07 08:55 -17.36119 -149.93504 14801 ft 352 kts 247°
2026-04-07 08:55 -17.37057 -149.95851 15402 ft 355 kts 248°
2026-04-07 08:55 -17.38003 -149.98266 16013 ft 359 kts 248°
2026-04-07 08:55 -17.38942 -150.00705 16579 ft 362 kts 248°
2026-04-07 08:56 -17.39876 -150.03151 17134 ft 366 kts 248°
2026-04-07 08:56 -17.40828 -150.05650 17693 ft 370 kts 249°
2026-04-07 08:56 -17.41784 -150.08161 18266 ft 373 kts 249°
2026-04-07 08:56 -17.42751 -150.10693 18767 ft 376 kts 249°
2026-04-07 08:57 -17.43727 -150.13248 19244 ft 379 kts 249°
2026-04-07 08:57 -17.44711 -150.15823 19739 ft 381 kts 249°
2026-04-07 08:57 -17.45699 -150.18414 20210 ft 384 kts 249°
2026-04-07 08:57 -17.46676 -150.20994 20717 ft 387 kts 249°
2026-04-07 08:58 -17.47673 -150.23625 21209 ft 389 kts 249°
2026-04-07 08:58 -17.48677 -150.26270 21699 ft 392 kts 249°
2026-04-07 08:58 -17.49690 -150.28935 22182 ft 395 kts 249°
2026-04-07 08:58 -17.50714 -150.31626 22664 ft 398 kts 249°
2026-04-07 08:59 -17.51742 -150.34334 23152 ft 401 kts 249°
2026-04-07 08:59 -17.52773 -150.37063 23602 ft 404 kts 249°
2026-04-07 08:59 -17.53801 -150.39777 23996 ft 406 kts 249°
2026-04-07 08:59 -17.54847 -150.42539 24377 ft 409 kts 249°
2026-04-07 09:00 -17.55902 -150.45322 24741 ft 412 kts 249°
2026-04-07 09:00 -17.56967 -150.48119 25145 ft 413 kts 248°
2026-04-07 09:00 -17.58029 -150.50927 25523 ft 415 kts 249°
2026-04-07 09:00 -17.59097 -150.53755 25906 ft 417 kts 249°
2026-04-07 09:01 -17.60154 -150.56557 26263 ft 420 kts 249°
2026-04-07 09:01 -17.61235 -150.59425 26607 ft 423 kts 249°
2026-04-07 09:01 -17.62318 -150.62300 26977 ft 425 kts 249°
2026-04-07 09:01 -17.63410 -150.65187 27368 ft 426 kts 249°
2026-04-07 09:02 -17.64507 -150.68090 27688 ft 429 kts 249°
2026-04-07 09:02 -17.65607 -150.71003 28010 ft 431 kts 249°
2026-04-07 09:02 -17.66714 -150.73933 28340 ft 433 kts 249°
2026-04-07 09:02 -17.67829 -150.76876 28644 ft 436 kts 249°
2026-04-07 09:03 -17.68950 -150.79841 28989 ft 438 kts 249°
2026-04-07 09:03 -17.70071 -150.82819 29294 ft 441 kts 249°
2026-04-07 09:03 -17.71181 -150.85784 29567 ft 444 kts 249°
2026-04-07 09:03 -17.72313 -150.88810 29876 ft 446 kts 249°
2026-04-07 09:04 -17.73449 -150.91840 30162 ft 448 kts 249°
2026-04-07 09:04 -17.74593 -150.94885 30427 ft 450 kts 249°
2026-04-07 09:04 -17.75742 -150.97945 30688 ft 452 kts 249°
2026-04-07 09:04 -17.76895 -151.01015 31021 ft 451 kts 249°
2026-04-07 09:05 -17.78046 -151.04087 31402 ft 450 kts 249°
2026-04-07 09:05 -17.79188 -151.07136 31735 ft 449 kts 248°
2026-04-07 09:05 -17.80321 -151.10158 32068 ft 449 kts 248°
2026-04-07 09:05 -17.81462 -151.13205 32435 ft 447 kts 248°
2026-04-07 09:06 -17.82598 -151.16240 32764 ft 447 kts 248°
2026-04-07 09:06 -17.83733 -151.19274 33102 ft 446 kts 248°
2026-04-07 09:06 -17.84488 -151.21289 33305 ft 446 kts 248°
2026-04-07 09:06 -17.85620 -151.24320 33565 ft 446 kts 248°
2026-04-07 09:07 -17.86757 -151.27364 33873 ft 446 kts 248°
2026-04-07 09:07 -17.89014 -151.33435 33956 ft 445 kts 248°
2026-04-07 09:08 -17.91256 -151.39454 33934 ft 444 kts 248°
2026-04-07 09:08 -17.93508 -151.45521 33923 ft 444 kts 248°
2026-04-07 09:09 -17.95754 -151.51566 33930 ft 444 kts 248°
2026-04-07 09:09 -17.97992 -151.57582 33929 ft 444 kts 248°
2026-04-07 09:10 -18.00240 -151.63643 33929 ft 445 kts 249°
2026-04-07 09:10 -18.01830 -151.69940 33929 ft 446 kts 256°
2026-04-07 09:11 -18.03197 -151.76287 33929 ft 446 kts 256°
2026-04-07 09:11 -18.04574 -151.82632 33929 ft 445 kts 256°
2026-04-07 09:12 -18.05958 -151.88981 33928 ft 446 kts 256°
2026-04-07 09:12 -18.07330 -151.95296 33923 ft 444 kts 256°
2026-04-07 09:13 -18.08701 -152.01633 33926 ft 444 kts 256°
2026-04-07 09:13 -18.10072 -152.07975 33925 ft 444 kts 256°
2026-04-07 09:14 -18.11444 -152.14313 33924 ft 444 kts 256°
2026-04-07 09:14 -18.12799 -152.20606 33927 ft 444 kts 256°
2026-04-07 09:15 -18.14168 -152.26944 33926 ft 443 kts 256°
2026-04-07 09:15 -18.15526 -152.33271 33922 ft 443 kts 256°
2026-04-07 09:16 -18.16878 -152.39564 33923 ft 442 kts 256°
2026-04-07 09:16 -18.18231 -152.45882 33927 ft 442 kts 256°
2026-04-07 09:17 -18.19581 -152.52201 33926 ft 442 kts 256°
2026-04-07 09:17 -18.20920 -152.58461 33922 ft 440 kts 257°
2026-04-07 09:18 -18.22254 -152.64743 33920 ft 440 kts 257°
2026-04-07 09:18 -18.24247 -152.74151 33927 ft 440 kts 257°
2026-04-07 09:19 -18.25585 -152.80452 33929 ft 440 kts 257°
2026-04-07 09:19 -18.26910 -152.86692 33923 ft 439 kts 257°
2026-04-07 09:20 -18.28240 -152.92965 33926 ft 439 kts 257°
2026-04-07 09:20 -18.29564 -152.99238 33927 ft 439 kts 257°
2026-04-07 09:21 -18.30886 -153.05516 33925 ft 439 kts 257°
2026-04-07 09:21 -18.32202 -153.11763 33923 ft 439 kts 257°
2026-04-07 09:22 -18.33522 -153.18037 33922 ft 439 kts 256°
2026-04-07 09:22 -18.34843 -153.24328 33924 ft 439 kts 256°
2026-04-07 09:23 -18.36147 -153.30573 33926 ft 439 kts 256°
2026-04-07 09:23 -18.37459 -153.36863 33926 ft 439 kts 256°
2026-04-07 09:24 -18.38773 -153.43147 33924 ft 439 kts 256°
2026-04-07 09:24 -18.40081 -153.49436 33923 ft 440 kts 256°
2026-04-07 09:25 -18.41394 -153.55734 33924 ft 440 kts 256°
2026-04-07 09:25 -18.42699 -153.62005 33923 ft 440 kts 256°
2026-04-07 09:26 -18.44006 -153.68314 33923 ft 440 kts 256°
2026-04-07 09:26 -18.45309 -153.74614 33924 ft 440 kts 256°
2026-04-07 09:27 -18.46605 -153.80897 33921 ft 438 kts 256°
2026-04-07 09:27 -18.47896 -153.87142 33923 ft 438 kts 256°
2026-04-07 09:28 -18.49188 -153.93422 33923 ft 438 kts 256°
2026-04-07 09:28 -18.50474 -153.99694 33921 ft 438 kts 256°
2026-04-07 09:29 -18.51754 -154.05928 33924 ft 437 kts 256°
2026-04-07 09:29 -18.53036 -154.12177 33923 ft 435 kts 256°
2026-04-07 09:30 -18.54309 -154.18416 33920 ft 435 kts 256°
2026-04-07 09:30 -18.55580 -154.24654 33920 ft 435 kts 256°
2026-04-07 09:31 -18.56841 -154.30863 33923 ft 435 kts 256°
2026-04-07 09:31 -18.58114 -154.37113 33916 ft 434 kts 255°
2026-04-07 09:32 -18.59370 -154.43287 33922 ft 432 kts 255°
2026-04-07 09:32 -18.60624 -154.49502 33923 ft 432 kts 255°
2026-04-07 09:33 -18.61885 -154.55710 33921 ft 432 kts 254°
2026-04-07 09:33 -18.63137 -154.61877 33920 ft 433 kts 254°
2026-04-07 09:34 -18.64387 -154.68091 33921 ft 433 kts 255°
2026-04-07 09:34 -18.65636 -154.74309 33920 ft 433 kts 255°
2026-04-07 09:35 -18.66883 -154.80502 33919 ft 433 kts 255°
2026-04-07 09:35 -18.68128 -154.86725 33918 ft 434 kts 255°
2026-04-07 09:36 -18.69368 -154.92934 33918 ft 434 kts 255°
2026-04-07 09:36 -18.70616 -154.99165 33909 ft 434 kts 255°
2026-04-07 09:37 -18.71860 -155.05383 33915 ft 433 kts 255°
2026-04-07 09:37 -18.73102 -155.11625 33915 ft 433 kts 255°
2026-04-07 09:38 -18.74330 -155.17822 33915 ft 433 kts 255°
2026-04-07 09:38 -18.75566 -155.24052 33914 ft 433 kts 255°
2026-04-07 09:39 -18.76798 -155.30299 33911 ft 433 kts 255°
2026-04-07 09:39 -18.78026 -155.36493 33914 ft 434 kts 255°
2026-04-07 09:40 -18.79252 -155.42734 33915 ft 434 kts 255°
2026-04-07 09:40 -18.80478 -155.48980 33915 ft 434 kts 255°
2026-04-07 09:41 -18.81693 -155.55176 33914 ft 434 kts 255°
2026-04-07 09:41 -18.82918 -155.61417 33917 ft 434 kts 255°
2026-04-07 09:42 -18.84140 -155.67644 33917 ft 433 kts 255°
2026-04-07 09:42 -18.85356 -155.73871 33917 ft 432 kts 255°
2026-04-07 09:43 -18.86568 -155.80097 33916 ft 432 kts 255°
2026-04-07 09:43 -18.87771 -155.86285 33914 ft 432 kts 255°
2026-04-07 09:44 -18.88984 -155.92522 33914 ft 432 kts 255°
2026-04-07 09:44 -18.90183 -155.98703 33914 ft 431 kts 255°
2026-04-07 09:45 -18.91387 -156.04922 33914 ft 431 kts 255°
2026-04-07 09:45 -18.92586 -156.11094 33915 ft 431 kts 255°
2026-04-07 09:46 -18.93779 -156.17314 33912 ft 431 kts 255°
2026-04-07 09:46 -18.94974 -156.23522 33911 ft 431 kts 255°
2026-04-07 09:47 -18.96163 -156.29699 33914 ft 430 kts 255°
2026-04-07 09:47 -18.97353 -156.35891 33914 ft 430 kts 255°
2026-04-07 09:48 -18.98537 -156.42095 33912 ft 430 kts 255°
2026-04-07 09:48 -18.99720 -156.48299 33911 ft 430 kts 255°
2026-04-07 09:49 -19.00894 -156.54450 33915 ft 430 kts 255°
2026-04-07 09:49 -19.02076 -156.60654 33916 ft 431 kts 256°
2026-04-07 09:50 -19.03257 -156.66866 33911 ft 431 kts 256°
2026-04-07 09:50 -19.04443 -156.73101 33911 ft 431 kts 256°
2026-04-07 09:51 -19.05613 -156.79286 33912 ft 431 kts 256°
2026-04-07 09:51 -19.06788 -156.85513 33911 ft 431 kts 256°
2026-04-07 09:52 -19.07967 -156.91756 33904 ft 436 kts 257°
2026-04-07 09:52 -19.09151 -156.98037 33912 ft 438 kts 257°
2026-04-07 09:53 -19.10344 -157.04358 33907 ft 438 kts 257°
2026-04-07 09:53 -19.11541 -157.10676 33908 ft 438 kts 257°
2026-04-07 09:54 -19.12743 -157.17011 33908 ft 438 kts 257°
2026-04-07 09:54 -19.13926 -157.23287 33906 ft 437 kts 257°
2026-04-07 09:55 -19.15114 -157.29593 33905 ft 436 kts 257°
2026-04-07 09:55 -19.16093 -157.34817 33905 ft 436 kts 257°
2026-04-07 09:56 -19.17270 -157.41122 33905 ft 436 kts 257°
2026-04-07 09:56 -19.18450 -157.47428 33906 ft 436 kts 257°
2026-04-07 09:57 -19.19631 -157.53728 33909 ft 436 kts 257°
2026-04-07 09:57 -19.20803 -157.60000 33908 ft 436 kts 256°
2026-04-07 09:58 -19.21977 -157.66310 33905 ft 436 kts 256°
2026-04-07 09:58 -19.23144 -157.72609 33905 ft 436 kts 256°
2026-04-07 09:59 -19.24312 -157.78919 33905 ft 436 kts 256°
2026-04-07 09:59 -19.25474 -157.85205 33905 ft 436 kts 256°
2026-04-07 10:00 -19.26648 -157.91514 33906 ft 436 kts 256°
2026-04-07 10:00 -19.27805 -157.97784 33907 ft 436 kts 256°
2026-04-07 10:01 -19.28968 -158.04099 33907 ft 436 kts 256°
2026-04-07 10:01 -19.30124 -158.10420 33906 ft 436 kts 256°
2026-04-07 10:02 -19.31264 -158.16690 33908 ft 436 kts 256°
2026-04-07 10:02 -19.32419 -158.23013 33906 ft 437 kts 256°
2026-04-07 10:03 -19.33571 -158.29325 33908 ft 437 kts 256°
2026-04-07 10:03 -19.34732 -158.35652 33907 ft 437 kts 256°
2026-04-07 10:04 -19.35873 -158.41940 33906 ft 437 kts 256°
2026-04-07 10:04 -19.37019 -158.48267 33903 ft 437 kts 256°
2026-04-07 10:05 -19.38167 -158.54595 33907 ft 435 kts 256°
2026-04-07 10:05 -19.39298 -158.60867 33903 ft 433 kts 256°
2026-04-07 10:06 -19.40423 -158.67099 33903 ft 433 kts 256°
2026-04-07 10:06 -19.41547 -158.73367 33903 ft 433 kts 256°
2026-04-07 10:07 -19.42676 -158.79636 33906 ft 433 kts 256°
2026-04-07 10:07 -19.43799 -158.85926 33905 ft 433 kts 256°
2026-04-07 10:08 -19.44921 -158.92198 33902 ft 433 kts 256°
2026-04-07 10:08 -19.46031 -158.98440 33902 ft 433 kts 256°
2026-04-07 10:09 -19.47142 -159.04711 33903 ft 433 kts 256°
2026-04-07 10:09 -19.48263 -159.10994 33902 ft 433 kts 256°
2026-04-07 10:10 -19.49377 -159.17286 33901 ft 433 kts 256°
2026-04-07 10:10 -19.50481 -159.23520 33901 ft 431 kts 256°
2026-04-07 10:11 -19.51589 -159.29775 33903 ft 431 kts 256°
2026-04-07 10:11 -19.52690 -159.36034 33902 ft 431 kts 256°
2026-04-07 10:12 -19.53786 -159.42287 33902 ft 431 kts 256°
2026-04-07 10:12 -19.54883 -159.48548 33904 ft 431 kts 256°
2026-04-07 10:13 -19.55977 -159.54812 33901 ft 431 kts 257°
2026-04-07 10:13 -19.57063 -159.61021 33911 ft 430 kts 257°
2026-04-07 10:14 -19.58153 -159.67257 33903 ft 430 kts 257°
2026-04-07 10:14 -19.59243 -159.73509 33901 ft 430 kts 257°
2026-04-07 10:15 -19.60324 -159.79714 33898 ft 430 kts 257°
2026-04-07 10:15 -19.61406 -159.85959 33916 ft 430 kts 257°
2026-04-07 10:16 -19.62477 -159.92191 33895 ft 431 kts 256°
2026-04-07 10:16 -19.63559 -159.98465 33898 ft 431 kts 256°
2026-04-07 10:17 -19.64639 -160.04729 33898 ft 431 kts 256°
2026-04-07 10:17 -19.65716 -160.10987 33907 ft 431 kts 256°
2026-04-07 10:18 -19.66790 -160.17256 33918 ft 431 kts 256°
2026-04-07 10:18 -19.67866 -160.23515 33899 ft 431 kts 256°
2026-04-07 10:19 -19.69457 -160.32873 33907 ft 431 kts 256°
2026-04-07 10:20 -19.70524 -160.39139 33899 ft 431 kts 256°
2026-04-07 10:20 -19.71588 -160.45393 33908 ft 431 kts 256°
2026-04-07 10:21 -19.72649 -160.51654 33902 ft 431 kts 256°
2026-04-07 10:21 -19.73701 -160.57871 33910 ft 431 kts 256°
2026-04-07 10:22 -19.74760 -160.64147 33897 ft 431 kts 256°
2026-04-07 10:22 -19.75818 -160.70424 33908 ft 431 kts 256°
2026-04-07 10:23 -19.76871 -160.76702 33913 ft 431 kts 256°
2026-04-07 10:23 -19.77916 -160.82939 33900 ft 431 kts 256°
2026-04-07 10:24 -19.78966 -160.89218 33888 ft 432 kts 255°
2026-04-07 10:24 -19.80008 -160.95483 33902 ft 433 kts 255°
2026-04-07 10:25 -19.81058 -161.01786 33904 ft 433 kts 255°
2026-04-07 10:25 -19.82102 -161.08061 33892 ft 433 kts 255°
2026-04-07 10:26 -19.83143 -161.14356 33900 ft 433 kts 255°
2026-04-07 10:26 -19.84187 -161.20657 33895 ft 433 kts 256°
2026-04-07 10:27 -19.85227 -161.26973 33903 ft 433 kts 255°
2026-04-07 10:27 -19.86265 -161.33280 33899 ft 433 kts 256°
2026-04-07 10:28 -19.87301 -161.39583 33894 ft 433 kts 256°
2026-04-07 10:28 -19.88334 -161.45889 33895 ft 433 kts 256°
2026-04-07 10:29 -19.89359 -161.52159 33901 ft 433 kts 256°
2026-04-07 10:29 -19.90389 -161.58471 33897 ft 435 kts 256°
2026-04-07 10:30 -19.91420 -161.64806 33899 ft 435 kts 256°
2026-04-07 10:30 -19.92451 -161.71151 33898 ft 436 kts 257°
2026-04-07 10:31 -19.93481 -161.77505 33895 ft 436 kts 257°
2026-04-07 10:31 -19.94503 -161.83829 33905 ft 436 kts 257°
2026-04-07 10:32 -19.95528 -161.90181 33903 ft 436 kts 257°
2026-04-07 10:32 -19.96553 -161.96548 33899 ft 438 kts 257°
2026-04-07 10:33 -19.97577 -162.02936 33898 ft 438 kts 257°
2026-04-07 10:33 -19.98599 -162.09321 33901 ft 438 kts 257°
2026-04-07 10:34 -19.99622 -162.15702 33903 ft 438 kts 257°
2026-04-07 10:34 -20.00637 -162.22053 33896 ft 438 kts 257°
2026-04-07 10:35 -20.01660 -162.28448 33899 ft 439 kts 257°
2026-04-07 10:35 -20.02687 -162.34875 33894 ft 440 kts 257°
2026-04-07 10:36 -20.03701 -162.41256 33895 ft 440 kts 257°
2026-04-07 10:36 -20.04723 -162.47670 33900 ft 440 kts 257°
2026-04-07 10:37 -20.05734 -162.54100 33907 ft 440 kts 257°
2026-04-07 10:37 -20.06743 -162.60528 33901 ft 440 kts 257°
2026-04-07 10:38 -20.07734 -162.66967 33898 ft 440 kts 257°
2026-04-07 10:38 -20.08720 -162.73354 33899 ft 440 kts 257°
2026-04-07 10:39 -20.09725 -162.79792 33900 ft 440 kts 257°
2026-04-07 10:39 -20.10724 -162.86209 33902 ft 440 kts 257°
2026-04-07 10:40 -20.11717 -162.92605 33902 ft 440 kts 257°
2026-04-07 10:40 -20.12709 -162.99022 33900 ft 438 kts 257°
2026-04-07 10:41 -20.13696 -163.05411 33904 ft 438 kts 257°
2026-04-07 10:41 -20.14683 -163.11809 33902 ft 438 kts 257°
2026-04-07 10:42 -20.15503 -163.17129 33902 ft 438 kts 257°
2026-04-07 10:42 -20.16643 -163.24573 33900 ft 438 kts 257°
2026-04-07 10:43 -20.17461 -163.29939 33900 ft 438 kts 257°
2026-04-07 10:43 -20.18432 -163.36288 33896 ft 435 kts 256°
2026-04-07 10:44 -20.19398 -163.42640 33902 ft 435 kts 256°
2026-04-07 10:44 -20.20363 -163.48998 33906 ft 435 kts 256°
2026-04-07 10:45 -20.21322 -163.55325 33903 ft 435 kts 257°
2026-04-07 10:45 -20.22282 -163.61688 33900 ft 435 kts 257°
2026-04-07 10:46 -20.23241 -163.68042 33903 ft 433 kts 256°
2026-04-07 10:46 -20.24192 -163.74373 33902 ft 433 kts 256°
2026-04-07 10:47 -20.25143 -163.80709 33903 ft 433 kts 256°
2026-04-07 10:47 -20.26084 -163.86998 33903 ft 432 kts 256°
2026-04-07 10:48 -20.27028 -163.93330 33902 ft 433 kts 256°
2026-04-07 10:48 -20.27974 -163.99671 33906 ft 433 kts 257°
2026-04-07 10:49 -20.28914 -164.06004 33907 ft 432 kts 257°
2026-04-07 10:49 -20.29845 -164.12294 33905 ft 432 kts 257°
2026-04-07 10:50 -20.30781 -164.18634 33905 ft 432 kts 257°
2026-04-07 10:50 -20.31710 -164.24934 33907 ft 432 kts 257°
2026-04-07 10:51 -20.32642 -164.31267 33904 ft 432 kts 257°
2026-04-07 10:51 -20.33570 -164.37605 33905 ft 431 kts 257°
2026-04-07 10:52 -20.34486 -164.43879 33905 ft 430 kts 257°
2026-04-07 10:52 -20.35407 -164.50196 33904 ft 430 kts 257°
2026-04-07 10:53 -20.36325 -164.56513 33905 ft 430 kts 257°
2026-04-07 10:53 -20.37235 -164.62793 33903 ft 430 kts 257°
2026-04-07 10:54 -20.38149 -164.69109 33904 ft 431 kts 257°
2026-04-07 10:54 -20.39059 -164.75419 33908 ft 430 kts 257°
2026-04-07 10:55 -20.39961 -164.81688 33910 ft 430 kts 257°
2026-04-07 10:55 -20.40868 -164.88006 33907 ft 431 kts 257°
2026-04-07 10:56 -20.41773 -164.94318 33906 ft 431 kts 257°
2026-04-07 10:56 -20.42670 -165.00609 33905 ft 431 kts 257°
2026-04-07 10:57 -20.43572 -165.06919 33914 ft 430 kts 257°
2026-04-07 10:57 -20.44463 -165.13209 33910 ft 429 kts 257°
2026-04-07 10:58 -20.45356 -165.19509 33910 ft 429 kts 257°
2026-04-07 10:58 -20.46239 -165.25767 33910 ft 429 kts 257°
2026-04-07 10:59 -20.47124 -165.32054 33908 ft 429 kts 257°
2026-04-07 10:59 -20.48015 -165.38359 33910 ft 429 kts 257°
2026-04-07 11:00 -20.48904 -165.44652 33910 ft 428 kts 258°
2026-04-07 11:00 -20.49774 -165.50882 33911 ft 427 kts 258°
2026-04-07 11:01 -20.50646 -165.57157 33910 ft 427 kts 258°
2026-04-07 11:01 -20.51516 -165.63440 33910 ft 427 kts 258°
2026-04-07 11:02 -20.52382 -165.69710 33909 ft 427 kts 258°
2026-04-07 11:02 -20.53247 -165.75979 33916 ft 427 kts 258°
2026-04-07 11:03 -20.54111 -165.82242 33915 ft 426 kts 258°
2026-04-07 11:03 -20.54970 -165.88486 33914 ft 426 kts 258°
2026-04-07 11:04 -20.55823 -165.94705 33914 ft 426 kts 258°
2026-04-07 11:04 -20.56681 -166.00960 33921 ft 425 kts 258°
2026-04-07 11:05 -20.57532 -166.07206 33914 ft 424 kts 258°
2026-04-07 11:05 -20.58377 -166.13436 33914 ft 424 kts 258°
2026-04-07 11:06 -20.59216 -166.19631 33914 ft 424 kts 258°
2026-04-07 11:06 -20.60060 -166.25868 33917 ft 424 kts 258°
2026-04-07 11:07 -20.60897 -166.32071 33916 ft 424 kts 258°
2026-04-07 11:07 -20.61738 -166.38310 33912 ft 424 kts 258°
2026-04-07 11:08 -20.62574 -166.44549 33913 ft 424 kts 258°
2026-04-07 11:08 -20.63409 -166.50755 33916 ft 424 kts 258°
2026-04-07 11:09 -20.64241 -166.57001 33917 ft 424 kts 258°
2026-04-07 11:09 -20.65069 -166.63240 33918 ft 424 kts 258°
2026-04-07 11:10 -20.65897 -166.69475 33918 ft 424 kts 258°
2026-04-07 11:10 -20.66715 -166.75679 33916 ft 424 kts 258°
2026-04-07 11:11 -20.67543 -166.81919 33913 ft 424 kts 258°
2026-04-07 11:11 -20.68361 -166.88165 33914 ft 423 kts 259°
2026-04-07 11:12 -20.69177 -166.94372 33919 ft 423 kts 259°
2026-04-07 11:12 -20.69991 -167.00605 33919 ft 423 kts 259°
2026-04-07 11:13 -20.70803 -167.06848 33917 ft 423 kts 259°
2026-04-07 11:13 -20.71618 -167.13075 33920 ft 423 kts 259°
2026-04-07 11:14 -20.72424 -167.19276 33921 ft 423 kts 259°
2026-04-07 11:14 -20.73225 -167.25504 33916 ft 422 kts 259°
2026-04-07 11:15 -20.74023 -167.31720 33921 ft 422 kts 259°
2026-04-07 11:15 -20.74825 -167.37939 33918 ft 422 kts 259°
2026-04-07 11:16 -20.75623 -167.44158 33916 ft 422 kts 259°
2026-04-07 11:16 -20.76414 -167.50347 33920 ft 422 kts 259°
2026-04-07 11:17 -20.77206 -167.56561 33918 ft 422 kts 259°
2026-04-07 11:17 -20.77995 -167.62787 33915 ft 421 kts 259°
2026-04-07 11:18 -20.78780 -167.68991 33917 ft 421 kts 259°
2026-04-07 11:18 -20.79562 -167.75171 33920 ft 421 kts 260°
2026-04-07 11:19 -20.80344 -167.81381 33919 ft 421 kts 260°
2026-04-07 11:19 -20.81122 -167.87588 33918 ft 421 kts 260°
2026-04-07 11:20 -20.81893 -167.93749 33919 ft 421 kts 260°
2026-04-07 11:20 -20.82675 -167.99968 33918 ft 422 kts 260°
2026-04-07 11:21 -20.83467 -168.06211 33919 ft 423 kts 260°
2026-04-07 11:21 -20.84241 -168.12405 33918 ft 423 kts 261°
2026-04-07 11:22 -20.85006 -168.18651 33919 ft 423 kts 261°
2026-04-07 11:22 -20.85776 -168.24904 33917 ft 423 kts 261°
2026-04-07 11:23 -20.86544 -168.31160 33922 ft 423 kts 261°
2026-04-07 11:23 -20.87305 -168.37359 33924 ft 423 kts 261°
2026-04-07 11:24 -20.88071 -168.43599 33923 ft 423 kts 261°
2026-04-07 11:24 -20.88820 -168.49838 33921 ft 423 kts 261°
2026-04-07 11:25 -20.89951 -168.59210 33923 ft 423 kts 261°
2026-04-07 11:25 -20.90705 -168.65425 33922 ft 423 kts 261°
2026-04-07 11:26 -20.91455 -168.71677 33921 ft 425 kts 261°
2026-04-07 11:26 -20.92209 -168.77968 33928 ft 426 kts 261°
2026-04-07 11:27 -20.92964 -168.84269 33925 ft 426 kts 261°
2026-04-07 11:27 -20.93714 -168.90516 33926 ft 426 kts 261°
2026-04-07 11:28 -20.94462 -168.96813 33923 ft 426 kts 261°
2026-04-07 11:28 -20.95208 -169.03116 33924 ft 426 kts 261°
2026-04-07 11:29 -20.95825 -169.08332 33923 ft 428 kts 261°
2026-04-07 11:29 -20.96572 -169.14659 33925 ft 428 kts 261°
2026-04-07 11:30 -20.97437 -169.22019 33924 ft 429 kts 261°
2026-04-07 11:30 -20.98059 -169.27333 33925 ft 429 kts 261°
2026-04-07 11:31 -20.98794 -169.33622 33932 ft 429 kts 261°
2026-04-07 11:31 -20.99533 -169.39969 33928 ft 429 kts 261°
2026-04-07 11:32 -21.00262 -169.46270 33926 ft 426 kts 261°
2026-04-07 11:32 -21.00993 -169.52579 33927 ft 426 kts 261°
2026-04-07 11:33 -21.01723 -169.58881 33926 ft 426 kts 261°
2026-04-07 11:33 -21.02442 -169.65150 33926 ft 426 kts 261°
2026-04-07 11:34 -21.03161 -169.71450 33923 ft 426 kts 261°
2026-04-07 11:34 -21.03881 -169.77753 33927 ft 426 kts 261°
2026-04-07 11:35 -21.04599 -169.84059 33928 ft 426 kts 261°
2026-04-07 11:35 -21.05315 -169.90333 33925 ft 426 kts 261°
2026-04-07 11:36 -21.06022 -169.96636 33925 ft 426 kts 261°
2026-04-07 11:36 -21.06733 -170.02950 33928 ft 426 kts 261°
2026-04-07 11:37 -21.07438 -170.09217 33930 ft 426 kts 261°
2026-04-07 11:37 -21.08142 -170.15523 33926 ft 426 kts 261°
2026-04-07 11:38 -21.08847 -170.21837 33922 ft 427 kts 261°
2026-04-07 11:38 -21.09550 -170.28163 33925 ft 427 kts 261°
2026-04-07 11:39 -21.10253 -170.34492 33928 ft 427 kts 261°
2026-04-07 11:39 -21.10948 -170.40780 33925 ft 427 kts 261°
2026-04-07 11:40 -21.11644 -170.47109 33928 ft 427 kts 262°
2026-04-07 11:40 -21.12337 -170.53434 33928 ft 427 kts 262°
2026-04-07 11:41 -21.13028 -170.59749 33922 ft 426 kts 262°
2026-04-07 11:41 -21.13710 -170.66047 33923 ft 425 kts 262°
2026-04-07 11:42 -21.14390 -170.72311 33927 ft 426 kts 262°
2026-04-07 11:42 -21.15069 -170.78617 33928 ft 425 kts 262°
2026-04-07 11:43 -21.15753 -170.84917 33922 ft 426 kts 262°
2026-04-07 11:43 -21.16425 -170.91231 33923 ft 426 kts 262°
2026-04-07 11:44 -21.17117 -170.97541 33923 ft 426 kts 262°
2026-04-07 11:44 -21.17787 -171.03812 33925 ft 426 kts 262°
2026-04-07 11:45 -21.18460 -171.10139 33925 ft 426 kts 262°
2026-04-07 11:45 -21.19123 -171.16428 33923 ft 426 kts 263°
2026-04-07 11:46 -21.19787 -171.22749 33925 ft 426 kts 262°
2026-04-07 11:46 -21.20447 -171.29022 33916 ft 426 kts 263°
2026-04-07 11:47 -21.21108 -171.35361 33927 ft 427 kts 263°
2026-04-07 11:47 -21.21759 -171.41697 33923 ft 427 kts 263°
2026-04-07 11:48 -21.22417 -171.47992 33922 ft 427 kts 263°
2026-04-07 11:48 -21.23071 -171.54322 33923 ft 427 kts 263°
2026-04-07 11:49 -21.23721 -171.60663 33918 ft 427 kts 263°
2026-04-07 11:49 -21.24368 -171.67014 33916 ft 430 kts 264°
2026-04-07 11:50 -21.25020 -171.73417 33916 ft 433 kts 264°
2026-04-07 11:50 -21.25670 -171.79792 33919 ft 433 kts 264°
2026-04-07 11:51 -21.26325 -171.86220 33918 ft 433 kts 264°
2026-04-07 11:51 -21.26978 -171.92661 33917 ft 433 kts 264°
2026-04-07 11:52 -21.27625 -171.99088 33916 ft 433 kts 264°
2026-04-07 11:52 -21.28266 -172.05489 33918 ft 433 kts 264°
2026-04-07 11:53 -21.28913 -172.11924 33919 ft 434 kts 264°
2026-04-07 11:53 -21.29555 -172.18374 33916 ft 434 kts 264°
2026-04-07 11:54 -21.30190 -172.24766 33914 ft 433 kts 264°
2026-04-07 11:54 -21.30830 -172.31198 33915 ft 433 kts 264°
2026-04-07 11:55 -21.31461 -172.37629 33919 ft 434 kts 264°
2026-04-07 11:55 -21.32093 -172.44082 33914 ft 434 kts 264°
2026-04-07 11:56 -21.32718 -172.50485 33910 ft 434 kts 264°
2026-04-07 11:56 -21.33348 -172.56927 33911 ft 433 kts 264°
2026-04-07 11:57 -21.33968 -172.63349 33917 ft 433 kts 264°
2026-04-07 11:57 -21.34588 -172.69790 33914 ft 433 kts 264°
2026-04-07 11:58 -21.35204 -172.76183 33907 ft 433 kts 264°
2026-04-07 11:58 -21.35818 -172.82607 33908 ft 432 kts 264°
2026-04-07 11:59 -21.36435 -172.89027 33914 ft 432 kts 264°
2026-04-07 11:59 -21.37043 -172.95438 33912 ft 432 kts 264°
2026-04-07 12:00 -21.37642 -173.01823 33909 ft 432 kts 264°
2026-04-07 12:00 -21.38248 -173.08244 33912 ft 432 kts 264°
2026-04-07 12:01 -21.38848 -173.14665 33913 ft 432 kts 264°
2026-04-07 12:01 -21.39446 -173.21088 33910 ft 433 kts 264°
2026-04-07 12:02 -21.40044 -173.27516 33913 ft 432 kts 264°
2026-04-07 12:02 -21.40643 -173.33941 33916 ft 433 kts 264°
2026-04-07 12:03 -21.41232 -173.40329 33912 ft 432 kts 264°
2026-04-07 12:03 -21.41828 -173.46748 33912 ft 433 kts 264°
2026-04-07 12:04 -21.42416 -173.53180 33912 ft 433 kts 264°
2026-04-07 12:04 -21.43001 -173.59598 33910 ft 434 kts 264°
2026-04-07 12:05 -21.43586 -173.66052 33910 ft 434 kts 264°
2026-04-07 12:05 -21.44170 -173.72502 33911 ft 434 kts 264°
2026-04-07 12:06 -21.44744 -173.78960 33914 ft 434 kts 264°
2026-04-07 12:06 -21.45322 -173.85415 33912 ft 434 kts 264°
2026-04-07 12:07 -21.45896 -173.91814 33904 ft 434 kts 264°
2026-04-07 12:07 -21.46472 -173.98258 33908 ft 433 kts 264°
2026-04-07 12:08 -21.47035 -174.04686 33912 ft 433 kts 264°
2026-04-07 12:08 -21.47596 -174.11139 33907 ft 433 kts 264°
2026-04-07 12:09 -21.48165 -174.17535 33907 ft 432 kts 264°
2026-04-07 12:09 -21.48728 -174.23960 33909 ft 432 kts 264°
2026-04-07 12:10 -21.49288 -174.30393 33914 ft 432 kts 265°
2026-04-07 12:10 -21.49830 -174.36782 33906 ft 431 kts 265°
2026-04-07 12:11 -21.50381 -174.43208 33902 ft 431 kts 265°
2026-04-07 12:11 -21.50933 -174.49598 33903 ft 431 kts 265°
2026-04-07 12:12 -21.51479 -174.56021 33908 ft 431 kts 265°
2026-04-07 12:12 -21.52018 -174.62437 33906 ft 431 kts 265°
2026-04-07 12:13 -21.52560 -174.68863 33905 ft 432 kts 265°
2026-04-07 12:13 -21.53105 -174.75288 33906 ft 433 kts 265°
2026-04-07 12:14 -21.53648 -174.81723 33903 ft 433 kts 265°
2026-04-07 12:14 -21.54179 -174.88141 33900 ft 433 kts 265°
2026-04-07 12:15 -21.54713 -174.94586 33900 ft 433 kts 265°
2026-04-07 12:15 -21.55248 -175.01038 33903 ft 433 kts 265°
2026-04-07 12:16 -21.55781 -175.07492 33903 ft 431 kts 265°
2026-04-07 12:16 -21.56214 -175.12824 33902 ft 430 kts 265°
2026-04-07 12:17 -21.56732 -175.19203 33906 ft 430 kts 265°
2026-04-07 12:17 -21.57253 -175.25620 33902 ft 430 kts 265°
2026-04-07 12:18 -21.57774 -175.32031 33896 ft 430 kts 265°
2026-04-07 12:18 -21.58286 -175.38404 33896 ft 430 kts 265°
2026-04-07 12:19 -21.58796 -175.44802 33895 ft 428 kts 266°
2026-04-07 12:19 -21.59305 -175.51154 33892 ft 426 kts 266°
2026-04-07 12:20 -21.59802 -175.57499 33897 ft 426 kts 266°
2026-04-07 12:20 -21.60298 -175.63854 33892 ft 426 kts 266°
2026-04-07 12:21 -21.60794 -175.70199 33893 ft 426 kts 266°
2026-04-07 12:21 -21.61290 -175.76508 33891 ft 426 kts 266°
2026-04-07 12:22 -21.61785 -175.82851 33890 ft 426 kts 266°
2026-04-07 12:22 -21.62274 -175.89196 33887 ft 425 kts 266°
2026-04-07 12:23 -21.62760 -175.95495 33888 ft 425 kts 266°
2026-04-07 12:23 -21.63250 -176.01838 33887 ft 425 kts 266°
2026-04-07 12:24 -21.63726 -176.08153 33884 ft 425 kts 266°
2026-04-07 12:24 -21.64205 -176.14494 33884 ft 425 kts 266°
2026-04-07 12:25 -21.64682 -176.20813 33884 ft 422 kts 267°
2026-04-07 12:25 -21.65149 -176.27104 33882 ft 420 kts 267°
2026-04-07 12:26 -21.65614 -176.33340 33888 ft 420 kts 267°
2026-04-07 12:26 -21.66078 -176.39603 33880 ft 421 kts 267°
2026-04-07 12:27 -21.66540 -176.45879 33879 ft 420 kts 267°
2026-04-07 12:27 -21.67007 -176.52160 33875 ft 420 kts 267°
2026-04-07 12:28 -21.67461 -176.58421 33886 ft 419 kts 268°
2026-04-07 12:29 -21.68134 -176.67754 33873 ft 417 kts 268°
2026-04-07 12:29 -21.68580 -176.73926 33874 ft 416 kts 268°
2026-04-07 12:30 -21.69025 -176.80137 33872 ft 416 kts 268°
2026-04-07 12:30 -21.69471 -176.86364 33870 ft 416 kts 268°
2026-04-07 12:31 -21.69914 -176.92573 33870 ft 416 kts 268°
2026-04-07 12:31 -21.70346 -176.98744 33865 ft 415 kts 268°
2026-04-07 12:32 -21.70785 -177.04928 33864 ft 415 kts 268°
2026-04-07 12:32 -21.71218 -177.11133 33868 ft 415 kts 269°
2026-04-07 12:33 -21.71642 -177.17313 33868 ft 415 kts 269°
2026-04-07 12:33 -21.72066 -177.23468 33865 ft 415 kts 269°
2026-04-07 12:34 -21.72491 -177.29652 33860 ft 415 kts 269°
2026-04-07 12:34 -21.72914 -177.35838 33863 ft 415 kts 269°
2026-04-07 12:35 -21.73335 -177.42004 33855 ft 415 kts 269°
2026-04-07 12:35 -21.73753 -177.48189 33855 ft 415 kts 269°
2026-04-07 12:36 -21.74170 -177.54378 33856 ft 414 kts 269°
2026-04-07 12:36 -21.74581 -177.60559 33854 ft 414 kts 269°
2026-04-07 12:37 -21.74993 -177.66759 33853 ft 414 kts 269°
2026-04-07 12:37 -21.75397 -177.72905 33858 ft 414 kts 270°
2026-04-07 12:38 -21.75802 -177.79100 33852 ft 414 kts 270°
2026-04-07 12:38 -21.76207 -177.85302 33849 ft 414 kts 270°
2026-04-07 12:39 -21.76611 -177.91457 33839 ft 414 kts 270°
2026-04-07 12:39 -21.77012 -177.97647 33840 ft 414 kts 270°
2026-04-07 12:40 -21.77410 -178.03837 33834 ft 415 kts 270°
2026-04-07 12:40 -21.77807 -178.09994 33836 ft 416 kts 271°
2026-04-07 12:41 -21.78201 -178.16244 33841 ft 419 kts 271°
2026-04-07 12:41 -21.78598 -178.22506 33831 ft 419 kts 271°
2026-04-07 12:42 -21.78987 -178.28758 33836 ft 418 kts 271°
2026-04-07 12:42 -21.79375 -178.34995 33834 ft 417 kts 271°
2026-04-07 12:43 -21.79759 -178.41197 33840 ft 417 kts 271°
2026-04-07 12:43 -21.80141 -178.47424 33837 ft 417 kts 271°
2026-04-07 12:44 -21.80516 -178.53635 33831 ft 418 kts 272°
2026-04-07 12:44 -21.80887 -178.59893 33828 ft 418 kts 272°
2026-04-07 12:45 -21.81254 -178.66151 33836 ft 418 kts 272°
2026-04-07 12:45 -21.81626 -178.72401 33832 ft 418 kts 272°
2026-04-07 12:46 -21.81988 -178.78626 33828 ft 418 kts 272°
2026-04-07 12:46 -21.82345 -178.84869 33823 ft 418 kts 272°
2026-04-07 12:47 -21.82706 -178.91152 33835 ft 422 kts 272°
2026-04-07 12:47 -21.83068 -178.97471 33822 ft 423 kts 272°
2026-04-07 12:48 -21.83426 -179.03788 33816 ft 423 kts 272°
2026-04-07 12:48 -21.83783 -179.10107 33814 ft 423 kts 272°
2026-04-07 12:49 -21.84138 -179.16431 33811 ft 422 kts 272°
2026-04-07 12:49 -21.84490 -179.22754 33816 ft 422 kts 272°
2026-04-07 12:50 -21.84837 -179.29079 33808 ft 428 kts 272°
2026-04-07 12:50 -21.85192 -179.35494 33808 ft 428 kts 272°
2026-04-07 12:51 -21.85538 -179.41860 33807 ft 428 kts 272°
2026-04-07 12:51 -21.85886 -179.48271 33804 ft 428 kts 272°
2026-04-07 12:52 -21.86229 -179.54639 33794 ft 428 kts 272°
2026-04-07 12:52 -21.86573 -179.61048 33808 ft 428 kts 272°
2026-04-07 12:53 -21.86911 -179.67453 33798 ft 428 kts 273°
2026-04-07 12:53 -21.87246 -179.73866 33802 ft 428 kts 273°
2026-04-07 12:54 -21.87578 -179.80228 33797 ft 428 kts 273°
2026-04-07 12:54 -21.87910 -179.86633 33792 ft 428 kts 273°
2026-04-07 12:55 -21.88240 -179.93030 33806 ft 428 kts 273°
2026-04-07 12:55 -21.88566 -179.99430 33799 ft 428 kts 273°
2026-04-07 12:56 -21.88891 179.94119 33794 ft 432 kts 273°
2026-04-07 12:56 -21.89217 179.87646 33799 ft 432 kts 273°
2026-04-07 12:57 -21.89542 179.81174 33791 ft 432 kts 273°
2026-04-07 12:57 -21.89864 179.74700 33792 ft 432 kts 273°
2026-04-07 12:58 -21.90179 179.68275 33779 ft 432 kts 273°
2026-04-07 12:58 -21.90494 179.61794 33775 ft 432 kts 273°
2026-04-07 12:59 -21.90803 179.55283 33774 ft 437 kts 273°
2026-04-07 12:59 -21.91116 179.48731 33768 ft 437 kts 273°
2026-04-07 13:00 -21.91429 179.42192 33769 ft 438 kts 273°
2026-04-07 13:00 -21.91740 179.35672 33763 ft 437 kts 273°
2026-04-07 13:01 -21.92044 179.29132 33764 ft 437 kts 273°
2026-04-07 13:01 -21.92348 179.22577 33757 ft 438 kts 274°
2026-04-07 13:02 -21.92649 179.15999 33756 ft 443 kts 274°
2026-04-07 13:02 -21.92950 179.09349 33757 ft 443 kts 274°
2026-04-07 13:03 -21.93197 179.03825 33756 ft 443 kts 274°
2026-04-07 13:03 -21.93548 178.96110 33753 ft 443 kts 274°
2026-04-07 13:04 -21.93792 178.90545 33744 ft 443 kts 274°
2026-04-07 13:04 -21.94082 178.83939 33743 ft 446 kts 274°
2026-04-07 13:05 -21.94371 178.77272 33733 ft 447 kts 274°
2026-04-07 13:05 -21.94659 178.70560 33729 ft 448 kts 274°
2026-04-07 13:06 -21.94949 178.63839 33728 ft 448 kts 274°
2026-04-07 13:06 -21.95228 178.57160 33716 ft 448 kts 274°
2026-04-07 13:07 -21.95510 178.50457 33716 ft 448 kts 274°
2026-04-07 13:07 -21.95787 178.43733 33706 ft 451 kts 274°
2026-04-07 13:08 -21.96064 178.37007 33707 ft 452 kts 274°
2026-04-07 13:08 -21.96340 178.30230 33695 ft 452 kts 274°
2026-04-07 13:09 -21.96616 178.23458 33694 ft 452 kts 274°
2026-04-07 13:09 -21.96886 178.16672 33682 ft 452 kts 274°
2026-04-07 13:10 -21.96478 178.10060 33688 ft 437 kts 291°
2026-04-07 13:10 -21.95364 178.07044 33847 ft 429 kts 305°
2026-04-07 13:10 -21.93772 178.04345 34052 ft 424 kts 313°
2026-04-07 13:10 -21.91936 178.01865 34304 ft 421 kts 316°
2026-04-07 13:11 -21.90034 177.99478 34570 ft 420 kts 316°
2026-04-07 13:11 -21.88134 177.97143 34834 ft 419 kts 317°
2026-04-07 13:11 -21.86193 177.94785 35090 ft 419 kts 317°
2026-04-07 13:11 -21.84187 177.92504 35344 ft 418 kts 319°
2026-04-07 13:12 -21.82154 177.90276 35594 ft 417 kts 320°
2026-04-07 13:12 -21.78058 177.85845 35727 ft 418 kts 320°
2026-04-07 13:12 -21.76001 177.83630 36009 ft 416 kts 320°
2026-04-07 13:13 -21.73964 177.81441 36328 ft 413 kts 320°
2026-04-07 13:13 -21.71959 177.79290 36585 ft 412 kts 320°
2026-04-07 13:13 -21.69920 177.77110 36640 ft 413 kts 320°
2026-04-07 13:14 -21.65848 177.72755 36628 ft 412 kts 320°
2026-04-07 13:14 -21.63809 177.70578 36778 ft 414 kts 320°
2026-04-07 13:14 -21.61784 177.68375 36952 ft 415 kts 320°
2026-04-07 13:14 -21.59755 177.66147 37091 ft 417 kts 320°
2026-04-07 13:15 -21.57722 177.63919 37240 ft 418 kts 320°
2026-04-07 13:15 -21.55688 177.61684 37470 ft 418 kts 320°
2026-04-07 13:15 -21.53653 177.59443 37676 ft 418 kts 320°
2026-04-07 13:15 -21.51638 177.57235 37811 ft 419 kts 320°
2026-04-07 13:16 -21.49566 177.54961 38018 ft 420 kts 320°
2026-04-07 13:16 -21.47551 177.52745 38280 ft 421 kts 319°
2026-04-07 13:16 -21.45757 177.50215 38479 ft 430 kts 306°
2026-04-07 13:16 -21.44493 177.47259 38590 ft 442 kts 295°
2026-04-07 13:17 -21.43767 177.44010 38597 ft 448 kts 286°
2026-04-07 13:17 -21.42847 177.37407 38543 ft 451 kts 284°
2026-04-07 13:18 -21.42061 177.30739 38545 ft 455 kts 284°
2026-04-07 13:18 -21.41316 177.23887 38520 ft 463 kts 283°
2026-04-07 13:19 -21.40532 177.17024 38517 ft 463 kts 283°
2026-04-07 13:19 -21.39726 177.10144 38513 ft 463 kts 284°
2026-04-07 13:20 -21.38985 177.03306 38491 ft 464 kts 283°
2026-04-07 13:20 -21.38212 176.96428 38485 ft 464 kts 283°
2026-04-07 13:21 -21.37396 176.89500 38443 ft 473 kts 283°
2026-04-07 13:21 -21.36609 176.82460 38435 ft 477 kts 283°
2026-04-07 13:22 -21.35828 176.75442 38410 ft 475 kts 283°
2026-04-07 13:22 -21.34976 176.68416 38404 ft 476 kts 283°
2026-04-07 13:23 -21.34192 176.61355 38380 ft 477 kts 283°
2026-04-07 13:23 -21.33411 176.54301 38380 ft 475 kts 284°
2026-04-07 13:24 -21.32584 176.47303 38350 ft 476 kts 283°
2026-04-07 13:24 -21.31805 176.40240 38349 ft 479 kts 284°
2026-04-07 13:25 -21.31038 176.33163 38351 ft 476 kts 282°
2026-04-07 13:25 -21.30204 176.26131 38350 ft 476 kts 284°
2026-04-07 13:26 -21.29428 176.19118 38352 ft 479 kts 284°
2026-04-07 13:26 -21.28602 176.11938 38318 ft 489 kts 283°
2026-04-07 13:27 -21.27631 176.04784 38325 ft 486 kts 285°
2026-04-07 13:27 -21.26731 175.97555 38333 ft 493 kts 283°
2026-04-07 13:28 -21.26534 175.90197 38343 ft 500 kts 265°
2026-04-07 13:28 -21.28063 175.82924 38322 ft 506 kts 259°
2026-04-07 13:29 -21.29815 175.75636 38304 ft 505 kts 258°
2026-04-07 13:29 -21.31811 175.68455 38303 ft 506 kts 244°
2026-04-07 13:29 -21.33602 175.65227 38316 ft 502 kts 232°
2026-04-07 13:30 -21.35884 175.62380 38379 ft 504 kts 225°
2026-04-07 13:30 -21.40871 175.57142 38404 ft 503 kts 222°
2026-04-07 13:31 -21.45977 175.51951 38399 ft 506 kts 221°
2026-04-07 13:31 -21.51096 175.46758 38421 ft 503 kts 221°
2026-04-07 13:32 -21.55986 175.41445 38411 ft 501 kts 230°
2026-04-07 13:32 -21.57884 175.38355 38444 ft 486 kts 236°
2026-04-07 13:32 -21.59558 175.35205 38439 ft 484 kts 238°
2026-04-07 13:33 -21.62750 175.28888 38437 ft 483 kts 238°
2026-04-07 13:33 -21.67342 175.19238 38425 ft 487 kts 244°
2026-04-07 13:34 -21.69791 175.12455 38436 ft 487 kts 245°
2026-04-07 13:34 -21.72256 175.05664 38435 ft 488 kts 246°
2026-04-07 13:35 -21.74764 174.98826 38485 ft 500 kts 248°
2026-04-07 13:35 -21.77304 174.91899 38494 ft 498 kts 248°
2026-04-07 13:36 -21.79839 174.84964 38487 ft 499 kts 248°
2026-04-07 13:36 -21.82367 174.78036 38504 ft 499 kts 248°
2026-04-07 13:37 -21.84881 174.71152 38514 ft 498 kts 248°
2026-04-07 13:37 -21.87405 174.64239 38528 ft 493 kts 248°
2026-04-07 13:38 -21.89876 174.57439 38508 ft 486 kts 248°
2026-04-07 13:38 -21.92332 174.50674 38534 ft 486 kts 248°
2026-04-07 13:39 -21.94788 174.43904 38541 ft 485 kts 249°
2026-04-07 13:39 -21.97246 174.37142 38548 ft 485 kts 249°
2026-04-07 13:40 -21.99653 174.30418 38367 ft 484 kts 249°
2026-04-07 13:40 -22.00864 174.27039 38123 ft 484 kts 249°
2026-04-07 13:40 -22.02086 174.23642 37867 ft 487 kts 248°
2026-04-07 13:41 -22.03313 174.20240 37630 ft 483 kts 250°
2026-04-07 13:41 -22.04528 174.16867 37373 ft 483 kts 250°
2026-04-07 13:41 -22.05739 174.13512 37115 ft 477 kts 250°
2026-04-07 13:41 -22.06937 174.10169 36840 ft 476 kts 251°
2026-04-07 13:42 -22.07833 174.06802 36599 ft 469 kts 262°
2026-04-07 13:42 -22.08135 174.03313 36565 ft 468 kts 271°
2026-04-07 13:42 -22.08214 173.96302 36577 ft 467 kts 271°
2026-04-07 13:43 -22.08291 173.89299 36611 ft 464 kts 271°
2026-04-07 13:43 -22.08390 173.82455 36610 ft 455 kts 270°
2026-04-07 13:44 -22.08486 173.75606 36620 ft 456 kts 271°
2026-04-07 13:44 -22.08571 173.68764 36621 ft 455 kts 270°
2026-04-07 13:45 -22.08660 173.61978 36616 ft 456 kts 271°
2026-04-07 13:45 -22.08746 173.55131 36625 ft 455 kts 271°
2026-04-07 13:46 -22.08835 173.48357 36635 ft 444 kts 272°
2026-04-07 13:46 -22.08912 173.41766 36641 ft 443 kts 271°
2026-04-07 13:47 -22.08981 173.35117 36641 ft 443 kts 271°
2026-04-07 13:47 -22.09060 173.28477 36643 ft 442 kts 272°
2026-04-07 13:48 -22.09130 173.21825 36645 ft 443 kts 271°
2026-04-07 13:48 -22.09192 173.15220 36662 ft 443 kts 272°
2026-04-07 13:49 -22.09256 173.08636 36658 ft 435 kts 271°
2026-04-07 13:49 -22.09310 173.03227 36650 ft 433 kts 271°
2026-04-07 13:50 -22.09370 172.96697 36661 ft 436 kts 270°
2026-04-07 13:50 -22.09426 172.90148 36663 ft 433 kts 271°
2026-04-07 13:51 -22.09479 172.83662 36658 ft 438 kts 270°
2026-04-07 13:51 -22.09539 172.77114 36665 ft 435 kts 271°
2026-04-07 13:52 -22.09575 172.70581 36661 ft 436 kts 271°
2026-04-07 13:52 -22.09621 172.64026 36674 ft 436 kts 271°
2026-04-07 13:53 -22.09663 172.57521 36683 ft 434 kts 271°
2026-04-07 13:53 -22.09702 172.50975 36667 ft 436 kts 271°
2026-04-07 13:54 -22.09739 172.44479 36674 ft 435 kts 271°
2026-04-07 13:54 -22.09776 172.37969 36707 ft 430 kts 270°
2026-04-07 13:55 -22.09818 172.31537 36685 ft 426 kts 270°
2026-04-07 13:55 -22.09845 172.25149 36698 ft 430 kts 270°
2026-04-07 13:56 -22.09866 172.18743 36691 ft 424 kts 271°
2026-04-07 13:56 -22.09886 172.12351 36695 ft 427 kts 271°
2026-04-07 13:57 -22.09910 172.05957 36695 ft 428 kts 270°
2026-04-07 13:57 -22.09933 171.99562 36698 ft 426 kts 271°
2026-04-07 13:58 -22.09949 171.93161 36708 ft 426 kts 271°
2026-04-07 13:58 -22.09980 171.86825 36713 ft 426 kts 271°
2026-04-07 13:59 -22.09990 171.80424 36713 ft 426 kts 271°
2026-04-07 13:59 -22.10000 171.74031 36703 ft 424 kts 271°
2026-04-07 14:00 -22.10007 171.67652 36710 ft 425 kts 271°
2026-04-07 14:00 -22.10015 171.61299 36720 ft 425 kts 271°
2026-04-07 14:01 -22.10012 171.54924 36716 ft 425 kts 271°
2026-04-07 14:01 -22.10001 171.48538 36726 ft 426 kts 271°
2026-04-07 14:02 -22.10002 171.42159 36729 ft 425 kts 271°
2026-04-07 14:02 -22.10013 171.35778 36734 ft 425 kts 271°
2026-04-07 14:03 -22.10008 171.29429 36738 ft 425 kts 271°
2026-04-07 14:03 -22.10001 171.23048 36735 ft 425 kts 272°
2026-04-07 14:04 -22.09985 171.16670 36735 ft 425 kts 272°
2026-04-07 14:04 -22.09969 171.10282 36739 ft 425 kts 272°
2026-04-07 14:05 -22.09956 171.03897 36737 ft 425 kts 272°
2026-04-07 14:05 -22.09934 170.97516 36744 ft 425 kts 272°
2026-04-07 14:06 -22.09915 170.91181 36746 ft 425 kts 272°
2026-04-07 14:06 -22.09893 170.84844 36757 ft 421 kts 272°
2026-04-07 14:07 -22.09854 170.78519 36751 ft 421 kts 272°
2026-04-07 14:07 -22.09814 170.72212 36758 ft 421 kts 272°
2026-04-07 14:08 -22.09787 170.65931 36751 ft 421 kts 272°
2026-04-07 14:08 -22.09767 170.59621 36754 ft 421 kts 272°
2026-04-07 14:09 -22.09737 170.53289 36760 ft 421 kts 272°
2026-04-07 14:09 -22.09701 170.47064 36765 ft 417 kts 272°
2026-04-07 14:10 -22.09637 170.40795 36760 ft 417 kts 272°
2026-04-07 14:10 -22.09579 170.34540 36756 ft 417 kts 272°
2026-04-07 14:11 -22.09533 170.28280 36768 ft 417 kts 272°
2026-04-07 14:11 -22.09479 170.22022 36761 ft 417 kts 272°
2026-04-07 14:12 -22.09426 170.15772 36777 ft 417 kts 272°
2026-04-07 14:12 -22.09367 170.09580 36766 ft 415 kts 272°
2026-04-07 14:13 -22.09309 170.03348 36763 ft 415 kts 272°
2026-04-07 14:13 -22.09247 169.97120 36768 ft 415 kts 272°
2026-04-07 14:14 -22.09184 169.90925 36766 ft 415 kts 272°
2026-04-07 14:14 -22.09122 169.84709 36767 ft 415 kts 272°
2026-04-07 14:15 -22.09051 169.78478 36793 ft 414 kts 272°
2026-04-07 14:15 -22.08983 169.72295 36774 ft 412 kts 273°
2026-04-07 14:16 -22.08911 169.66107 36791 ft 412 kts 273°
2026-04-07 14:16 -22.08840 169.59956 36771 ft 412 kts 273°
2026-04-07 14:17 -22.08758 169.53763 36777 ft 412 kts 273°
2026-04-07 14:17 -22.08683 169.47573 36781 ft 412 kts 273°
2026-04-07 14:18 -22.08601 169.41427 36799 ft 412 kts 273°
2026-04-07 14:18 -22.08520 169.35266 36792 ft 410 kts 273°
2026-04-07 14:19 -22.08434 169.29113 36782 ft 410 kts 273°
2026-04-07 14:19 -22.08411 169.27525 36788 ft 410 kts 273°
2026-04-07 14:20 -22.08406 169.27143 36791 ft 410 kts 273°
2026-04-07 14:20 -22.08400 169.26759 36789 ft 410 kts 273°
2026-04-07 14:21 -22.08394 169.26374 36792 ft 410 kts 273°
2026-04-07 14:21 -22.08388 169.25989 36789 ft 410 kts 273°
2026-04-07 14:22 -22.08383 169.25605 36787 ft 410 kts 273°
2026-04-07 14:22 -22.08377 169.25222 36786 ft 410 kts 273°
2026-04-07 14:23 -22.08371 169.24837 36784 ft 410 kts 273°
2026-04-07 14:23 -22.08365 169.24452 36782 ft 410 kts 273°
2026-04-07 14:24 -22.08360 169.24070 36778 ft 410 kts 273°
2026-04-07 14:24 -22.08354 169.23685 36775 ft 410 kts 273°
2026-04-07 14:25 -22.08348 169.23300 36774 ft 410 kts 273°
2026-04-07 14:25 -22.08343 169.22916 36771 ft 411 kts 273°
2026-04-07 14:26 -22.08337 169.22532 36769 ft 411 kts 273°
2026-04-07 14:26 -22.08332 169.22148 36766 ft 411 kts 273°
2026-04-07 14:27 -22.08327 169.21763 36760 ft 411 kts 273°
2026-04-07 14:27 -22.08322 169.21377 36756 ft 411 kts 273°
2026-04-07 14:28 -22.08317 169.20992 36753 ft 411 kts 273°
2026-04-07 14:28 -22.08313 169.20607 36749 ft 411 kts 272°
2026-04-07 14:29 -22.08308 169.20221 36745 ft 411 kts 272°
2026-04-07 14:29 -22.08304 169.19835 36740 ft 411 kts 272°
2026-04-07 14:30 -22.08301 169.19452 36735 ft 412 kts 272°
2026-04-07 14:30 -22.08297 169.19065 36730 ft 412 kts 272°
2026-04-07 14:31 -22.08294 169.18678 36725 ft 412 kts 272°
2026-04-07 14:31 -22.08291 169.18294 36719 ft 412 kts 272°
2026-04-07 14:32 -22.08288 169.17908 36714 ft 412 kts 272°
2026-04-07 14:32 -22.08286 169.17521 36708 ft 412 kts 272°
2026-04-07 14:33 -22.08284 169.17134 36702 ft 412 kts 272°
2026-04-07 14:33 -22.08282 169.16747 36695 ft 413 kts 272°
2026-04-07 14:34 -22.08280 169.16362 36689 ft 413 kts 272°
2026-04-07 14:34 -22.08279 169.15975 36682 ft 413 kts 272°
2026-04-07 14:35 -22.08278 169.15587 36675 ft 413 kts 272°
2026-04-07 14:35 -22.08278 169.15202 36668 ft 413 kts 272°
2026-04-07 14:36 -22.08278 169.14814 36662 ft 413 kts 272°
2026-04-07 14:36 -22.08278 169.14491 36656 ft 414 kts 272°
2026-04-07 14:37 -22.08278 169.14102 36652 ft 414 kts 272°
2026-04-07 14:37 -22.08279 169.13716 36643 ft 414 kts 272°
2026-04-07 14:38 -22.08280 169.13328 36634 ft 414 kts 272°
2026-04-07 14:38 -22.08282 169.12941 36630 ft 414 kts 272°
2026-04-07 14:39 -22.08285 169.12357 36621 ft 415 kts 272°
2026-04-07 14:40 -22.08287 169.11969 36615 ft 415 kts 271°
2026-04-07 14:40 -22.08291 169.11582 36608 ft 415 kts 271°
2026-04-07 14:41 -22.08294 169.11193 36601 ft 415 kts 271°
2026-04-07 14:41 -22.08298 169.10803 36592 ft 415 kts 271°
2026-04-07 14:42 -22.08303 169.10414 36585 ft 415 kts 271°
2026-04-07 14:42 -22.08308 169.10034 36582 ft 415 kts 271°
2026-04-07 14:43 -22.08314 169.09603 36574 ft 416 kts 271°
2026-04-07 14:43 -22.08262 169.05805 36644 ft 415 kts 274°
2026-04-07 14:44 -22.08032 168.99583 36765 ft 415 kts 274°
2026-04-07 14:44 -22.07897 168.93422 36790 ft 409 kts 273°
2026-04-07 14:45 -22.07793 168.87293 36806 ft 407 kts 273°
2026-04-07 14:45 -22.07690 168.81194 36802 ft 407 kts 273°
2026-04-07 14:46 -22.07584 168.75126 36800 ft 407 kts 273°
2026-04-07 14:46 -22.07477 168.69025 36815 ft 407 kts 273°
2026-04-07 14:47 -22.07366 168.62957 36803 ft 403 kts 273°
2026-04-07 14:47 -22.07259 168.56910 36803 ft 404 kts 273°
2026-04-07 14:48 -22.07144 168.50852 36809 ft 404 kts 273°
2026-04-07 14:48 -22.07030 168.44808 36808 ft 403 kts 273°
2026-04-07 14:49 -22.06915 168.38790 36811 ft 403 kts 273°
2026-04-07 14:49 -22.06787 168.32731 36811 ft 403 kts 274°
2026-04-07 14:50 -22.06645 168.26702 36812 ft 401 kts 273°
2026-04-07 14:50 -22.06505 168.20694 36818 ft 401 kts 273°
2026-04-07 14:51 -22.06363 168.14685 36818 ft 401 kts 273°
2026-04-07 14:51 -22.06225 168.08701 36819 ft 401 kts 274°
2026-04-07 14:52 -22.06074 168.02683 36820 ft 401 kts 273°
2026-04-07 14:52 -22.05929 167.96673 36820 ft 401 kts 273°
2026-04-07 14:53 -22.05780 167.90715 36821 ft 399 kts 273°
2026-04-07 14:53 -22.05625 167.84734 36823 ft 399 kts 273°
2026-04-07 14:54 -22.05469 167.78752 36826 ft 399 kts 273°
2026-04-07 14:54 -22.05316 167.72761 36826 ft 399 kts 273°
2026-04-07 14:55 -22.05153 167.66820 36826 ft 399 kts 273°
2026-04-07 14:55 -22.04993 167.60835 36828 ft 399 kts 273°
2026-04-07 14:56 -22.04824 167.54854 36828 ft 398 kts 273°
2026-04-07 14:56 -22.04666 167.48886 36832 ft 398 kts 273°
2026-04-07 14:57 -22.04501 167.42911 36832 ft 398 kts 273°
2026-04-07 14:57 -22.04315 167.36970 36832 ft 398 kts 274°
2026-04-07 14:58 -22.04140 167.30999 36832 ft 398 kts 273°
2026-04-07 14:58 -22.03972 167.25018 36832 ft 398 kts 274°
2026-04-07 14:59 -22.03795 167.19086 36847 ft 397 kts 273°
2026-04-07 14:59 -22.03616 167.13135 36842 ft 397 kts 273°
2026-04-07 15:00 -22.03437 167.07170 36844 ft 397 kts 273°
2026-04-07 15:00 -22.03254 167.01261 36847 ft 397 kts 273°
2026-04-07 15:01 -22.03070 166.95320 36847 ft 397 kts 273°
2026-04-07 15:01 -22.02889 166.89371 36852 ft 397 kts 273°
2026-04-07 15:02 -22.02692 166.83427 36849 ft 396 kts 273°
2026-04-07 15:02 -22.02498 166.77486 36860 ft 396 kts 273°
2026-04-07 15:03 -22.02309 166.71589 36859 ft 396 kts 273°
2026-04-07 15:03 -22.02113 166.65651 36856 ft 396 kts 273°
2026-04-07 15:04 -22.01917 166.59708 36880 ft 397 kts 273°
2026-04-07 15:04 -22.01721 166.53799 36879 ft 397 kts 273°
2026-04-07 15:05 -22.01526 166.47849 36872 ft 396 kts 273°
2026-04-07 15:05 -22.01319 166.41918 36877 ft 396 kts 273°
2026-04-07 15:06 -22.01113 166.36015 36883 ft 396 kts 273°
2026-04-07 15:06 -22.00902 166.30082 36873 ft 396 kts 273°
2026-04-07 15:07 -22.00689 166.24168 36873 ft 396 kts 273°
2026-04-07 15:07 -22.00093 166.18245 36875 ft 395 kts 281°
2026-04-07 15:08 -21.99062 166.12445 36892 ft 395 kts 281°
2026-04-07 15:08 -21.97991 166.06632 36877 ft 394 kts 281°
2026-04-07 15:09 -21.96923 166.00826 36875 ft 395 kts 281°
2026-04-07 15:09 -21.95881 165.95053 36869 ft 395 kts 281°
2026-04-07 15:10 -21.94834 165.89230 36867 ft 395 kts 281°
2026-04-07 15:10 -21.93784 165.83417 36866 ft 395 kts 281°
2026-04-07 15:11 -21.92740 165.77641 36862 ft 395 kts 281°
2026-04-07 15:11 -21.91699 165.71830 36866 ft 395 kts 281°
2026-04-07 15:12 -21.90664 165.66014 36866 ft 395 kts 281°
2026-04-07 15:12 -21.89606 165.60208 36867 ft 395 kts 281°
2026-04-07 15:13 -21.88535 165.54439 36867 ft 395 kts 281°
2026-04-07 15:13 -21.87458 165.48630 36866 ft 395 kts 281°
2026-04-07 15:14 -21.86391 165.42819 36868 ft 395 kts 281°
2026-04-07 15:14 -21.85333 165.37057 36868 ft 395 kts 281°
2026-04-07 15:15 -21.84261 165.31223 36869 ft 395 kts 281°
2026-04-07 15:15 -21.83196 165.25459 36869 ft 395 kts 281°
2026-04-07 15:16 -21.82137 165.19654 36868 ft 395 kts 281°
2026-04-07 15:16 -21.81057 165.13846 36867 ft 395 kts 281°
2026-04-07 15:17 -21.79979 165.08075 36871 ft 395 kts 281°
2026-04-07 15:17 -21.78899 165.02273 36868 ft 395 kts 281°
2026-04-07 15:18 -21.77820 164.96450 36871 ft 396 kts 281°
2026-04-07 15:18 -21.76741 164.90640 36871 ft 396 kts 281°
2026-04-07 15:19 -21.75662 164.84872 36870 ft 396 kts 281°
2026-04-07 15:19 -21.74565 164.79053 36869 ft 395 kts 281°
2026-04-07 15:20 -21.73481 164.73288 36862 ft 396 kts 281°
2026-04-07 15:20 -21.72389 164.67473 36865 ft 396 kts 281°
2026-04-07 15:21 -21.71292 164.61660 36866 ft 397 kts 281°
2026-04-07 15:21 -21.70195 164.55829 36936 ft 398 kts 281°
2026-04-07 15:21 -21.69660 164.52947 37178 ft 398 kts 281°
2026-04-07 15:22 -21.69106 164.49996 37497 ft 397 kts 281°
2026-04-07 15:22 -21.68559 164.47127 37817 ft 396 kts 281°
2026-04-07 15:22 -21.68003 164.44217 38119 ft 396 kts 281°
2026-04-07 15:22 -21.67450 164.41322 38446 ft 396 kts 281°
2026-04-07 15:23 -21.66895 164.38413 38727 ft 398 kts 281°
2026-04-07 15:23 -21.66338 164.35483 38879 ft 401 kts 281°
2026-04-07 15:23 -21.65773 164.32539 38896 ft 401 kts 281°
2026-04-07 15:24 -21.64657 164.26693 38880 ft 400 kts 281°
2026-04-07 15:24 -21.63535 164.20816 38872 ft 400 kts 281°
2026-04-07 15:25 -21.62607 164.15944 38871 ft 400 kts 281°
2026-04-07 15:25 -21.61475 164.10073 38870 ft 400 kts 281°
2026-04-07 15:26 -21.60351 164.04209 38870 ft 400 kts 281°
2026-04-07 15:26 -21.59223 163.98352 38870 ft 400 kts 281°
2026-04-07 15:27 -21.58090 163.92488 38870 ft 400 kts 281°
2026-04-07 15:27 -21.56965 163.86661 38872 ft 400 kts 281°
2026-04-07 15:28 -21.55831 163.80798 38873 ft 400 kts 281°
2026-04-07 15:28 -21.54696 163.74946 38873 ft 400 kts 281°
2026-04-07 15:29 -21.53558 163.69114 38873 ft 400 kts 281°
2026-04-07 15:29 -21.52414 163.63246 38869 ft 400 kts 281°
2026-04-07 15:30 -21.51271 163.57387 38873 ft 400 kts 280°
2026-04-07 15:30 -21.50135 163.51557 38877 ft 402 kts 281°
2026-04-07 15:31 -21.48971 163.45649 38879 ft 402 kts 281°
2026-04-07 15:31 -21.47823 163.39794 38875 ft 402 kts 280°
2026-04-07 15:32 -21.46669 163.33917 38875 ft 402 kts 281°
2026-04-07 15:32 -21.45516 163.28081 38876 ft 402 kts 280°
2026-04-07 15:33 -21.44354 163.22208 38880 ft 401 kts 280°
2026-04-07 15:33 -21.43198 163.16343 38875 ft 401 kts 280°
2026-04-07 15:34 -21.42030 163.10482 38875 ft 401 kts 281°
2026-04-07 15:34 -21.40866 163.04624 38882 ft 401 kts 280°
2026-04-07 15:35 -21.39702 162.98763 38881 ft 401 kts 281°
2026-04-07 15:35 -21.38541 162.92948 38883 ft 401 kts 280°
2026-04-07 15:36 -21.37369 162.87085 38884 ft 401 kts 280°
2026-04-07 15:36 -21.36199 162.81236 38881 ft 401 kts 280°
2026-04-07 15:37 -21.35030 162.75421 38883 ft 401 kts 280°
2026-04-07 15:37 -21.33856 162.69569 38884 ft 400 kts 280°
2026-04-07 15:38 -21.32685 162.63723 38887 ft 401 kts 280°
2026-04-07 15:38 -21.31509 162.57884 38883 ft 400 kts 280°
2026-04-07 15:39 -21.30320 162.52042 38887 ft 400 kts 280°
2026-04-07 15:39 -21.29145 162.46235 38886 ft 401 kts 280°
2026-04-07 15:40 -21.27963 162.40375 38887 ft 402 kts 280°
2026-04-07 15:40 -21.26769 162.34514 38888 ft 402 kts 280°
2026-04-07 15:41 -21.25579 162.28660 38889 ft 402 kts 281°
2026-04-07 15:41 -21.24380 162.22806 38889 ft 401 kts 280°
2026-04-07 15:42 -21.23187 162.16962 38889 ft 401 kts 280°
2026-04-07 15:42 -21.21400 162.08238 38894 ft 401 kts 280°
2026-04-07 15:43 -21.20198 162.02386 38887 ft 401 kts 280°
2026-04-07 15:43 -21.19000 161.96533 38894 ft 401 kts 280°
2026-04-07 15:44 -21.17793 161.90686 38892 ft 401 kts 281°
2026-04-07 15:44 -21.16590 161.84864 38888 ft 401 kts 281°
2026-04-07 15:45 -21.15380 161.79029 38894 ft 401 kts 281°
2026-04-07 15:45 -21.14177 161.73187 38896 ft 401 kts 281°
2026-04-07 15:46 -21.12968 161.67372 38896 ft 401 kts 281°
2026-04-07 15:46 -21.11753 161.61530 38894 ft 401 kts 281°
2026-04-07 15:47 -21.10537 161.55697 38894 ft 401 kts 281°
2026-04-07 15:47 -21.09325 161.49902 38895 ft 401 kts 281°
2026-04-07 15:48 -21.08107 161.44059 38880 ft 402 kts 281°
2026-04-07 15:48 -21.06877 161.38198 38890 ft 404 kts 281°
2026-04-07 15:49 -21.05647 161.32329 38893 ft 404 kts 281°
2026-04-07 15:49 -21.04422 161.26488 38893 ft 404 kts 281°
2026-04-07 15:50 -21.03182 161.20622 38890 ft 403 kts 281°
2026-04-07 15:50 -21.01950 161.14767 38895 ft 402 kts 281°
2026-04-07 15:51 -21.00710 161.08908 38897 ft 404 kts 281°
2026-04-07 15:51 -20.99473 161.03069 38894 ft 404 kts 281°
2026-04-07 15:52 -20.98229 160.97190 38896 ft 404 kts 281°
2026-04-07 15:52 -20.96982 160.91313 38897 ft 404 kts 281°
2026-04-07 15:53 -20.95744 160.85487 38893 ft 404 kts 281°
2026-04-07 15:53 -20.94490 160.79617 38899 ft 405 kts 281°
2026-04-07 15:54 -20.93234 160.73729 38897 ft 406 kts 281°
2026-04-07 15:54 -20.91983 160.67842 38897 ft 406 kts 281°
2026-04-07 15:55 -20.90711 160.61949 38897 ft 406 kts 281°
2026-04-07 15:55 -20.89456 160.56098 38899 ft 406 kts 281°
2026-04-07 15:56 -20.88196 160.50207 38895 ft 405 kts 281°
2026-04-07 15:56 -20.86925 160.44327 38898 ft 405 kts 281°
2026-04-07 15:57 -20.85662 160.38482 38902 ft 405 kts 281°
2026-04-07 15:57 -20.84393 160.32604 38903 ft 405 kts 281°
2026-04-07 15:58 -20.83126 160.26747 38900 ft 405 kts 281°
2026-04-07 15:58 -20.81848 160.20872 38899 ft 405 kts 281°
2026-04-07 15:59 -20.80571 160.15003 38898 ft 407 kts 281°
2026-04-07 15:59 -20.79287 160.09125 38899 ft 408 kts 281°
2026-04-07 16:00 -20.77998 160.03222 38900 ft 408 kts 281°
2026-04-07 16:00 -20.76718 159.97316 38903 ft 407 kts 281°
2026-04-07 16:01 -20.75427 159.91450 38905 ft 407 kts 281°
2026-04-07 16:01 -20.74132 159.85556 38897 ft 407 kts 281°
2026-04-07 16:02 -20.72847 159.79697 38902 ft 408 kts 281°
2026-04-07 16:02 -20.71546 159.73780 38904 ft 409 kts 281°
2026-04-07 16:03 -20.70241 159.67864 38903 ft 409 kts 281°
2026-04-07 16:03 -20.68937 159.61947 38902 ft 409 kts 281°
2026-04-07 16:04 -20.67632 159.56062 38905 ft 409 kts 281°
2026-04-07 16:04 -20.66325 159.50159 38901 ft 408 kts 281°
2026-04-07 16:05 -20.65021 159.44259 38902 ft 408 kts 281°
2026-04-07 16:05 -20.63709 159.38369 38903 ft 407 kts 281°
2026-04-07 16:06 -20.62400 159.32470 38903 ft 407 kts 281°
2026-04-07 16:06 -20.61090 159.26620 38903 ft 407 kts 281°
2026-04-07 16:07 -20.59779 159.20744 38903 ft 407 kts 281°
2026-04-07 16:07 -20.58462 159.14848 38902 ft 409 kts 281°
2026-04-07 16:08 -20.57146 159.08971 38902 ft 410 kts 281°
2026-04-07 16:08 -20.55812 159.03050 38902 ft 410 kts 281°
2026-04-07 16:09 -20.54478 158.97123 38902 ft 410 kts 281°
2026-04-07 16:09 -20.53147 158.91200 38903 ft 410 kts 281°
2026-04-07 16:10 -20.51813 158.85282 38902 ft 410 kts 281°
2026-04-07 16:10 -20.50488 158.79404 38906 ft 409 kts 281°
2026-04-07 16:11 -20.49150 158.73497 38906 ft 410 kts 281°
2026-04-07 16:11 -20.48036 158.68562 38907 ft 411 kts 281°
2026-04-07 16:12 -20.46473 158.61669 38902 ft 411 kts 281°
2026-04-07 16:12 -20.45351 158.56727 38903 ft 411 kts 281°
2026-04-07 16:13 -20.43989 158.50798 38904 ft 411 kts 281°
2026-04-07 16:13 -20.42638 158.44901 38907 ft 411 kts 281°
2026-04-07 16:14 -20.41282 158.38972 38906 ft 411 kts 281°
2026-04-07 16:14 -20.39933 158.33038 38905 ft 411 kts 281°
2026-04-07 16:15 -20.38574 158.27125 38902 ft 410 kts 281°
2026-04-07 16:15 -20.37219 158.21254 38900 ft 410 kts 281°
2026-04-07 16:16 -20.35855 158.15318 38896 ft 413 kts 282°
2026-04-07 16:16 -20.34482 158.09374 38900 ft 413 kts 282°
2026-04-07 16:17 -20.33107 158.03424 38899 ft 413 kts 282°
2026-04-07 16:17 -20.31746 157.97523 38899 ft 413 kts 282°
2026-04-07 16:18 -20.30369 157.91576 38903 ft 413 kts 282°
2026-04-07 16:18 -20.28989 157.85629 38898 ft 413 kts 282°
2026-04-07 16:19 -20.27612 157.79688 38902 ft 412 kts 282°
2026-04-07 16:19 -20.26226 157.73757 38904 ft 414 kts 282°
2026-04-07 16:20 -20.24844 157.67836 38903 ft 414 kts 282°
2026-04-07 16:20 -20.23453 157.61871 38902 ft 414 kts 282°
2026-04-07 16:21 -20.22057 157.55900 38903 ft 414 kts 282°
2026-04-07 16:21 -20.20672 157.49990 38902 ft 414 kts 282°
2026-04-07 16:22 -20.19270 157.44022 38904 ft 415 kts 282°
2026-04-07 16:22 -20.17869 157.38036 38903 ft 416 kts 282°
2026-04-07 16:23 -20.16470 157.32099 38902 ft 415 kts 282°
2026-04-07 16:23 -20.15057 157.26127 38905 ft 415 kts 282°
2026-04-07 16:24 -20.13652 157.20169 38901 ft 415 kts 282°
2026-04-07 16:24 -20.12243 157.14225 38908 ft 414 kts 282°
2026-04-07 16:25 -20.10842 157.08310 38907 ft 415 kts 282°
2026-04-07 16:25 -20.09425 157.02338 38906 ft 416 kts 282°
2026-04-07 16:26 -20.08004 156.96356 38908 ft 416 kts 282°
2026-04-07 16:26 -20.06590 156.90413 38908 ft 416 kts 282°
2026-04-07 16:27 -20.05170 156.84440 38906 ft 415 kts 282°
2026-04-07 16:27 -20.03741 156.78471 38909 ft 417 kts 282°
2026-04-07 16:28 -20.02315 156.72521 38909 ft 417 kts 282°
2026-04-07 16:28 -20.00879 156.66528 38908 ft 417 kts 282°
2026-04-07 16:29 -19.99448 156.60545 38912 ft 417 kts 282°
2026-04-07 16:29 -19.98017 156.54597 38911 ft 417 kts 282°
2026-04-07 16:30 -19.96573 156.48611 38911 ft 416 kts 282°
2026-04-07 16:30 -19.95146 156.42685 38911 ft 417 kts 282°
2026-04-07 16:31 -19.93703 156.36691 38912 ft 418 kts 282°
2026-04-07 16:31 -19.92251 156.30697 38911 ft 418 kts 282°
2026-04-07 16:32 -19.90810 156.24749 38906 ft 418 kts 282°
2026-04-07 16:32 -19.89354 156.18762 38910 ft 418 kts 282°
2026-04-07 16:33 -19.87902 156.12776 38911 ft 417 kts 282°
2026-04-07 16:33 -19.86451 156.06808 38915 ft 417 kts 282°
2026-04-07 16:34 -19.85003 156.00884 38912 ft 416 kts 282°
2026-04-07 16:34 -19.83548 155.94920 38915 ft 416 kts 282°
2026-04-07 16:35 -19.82088 155.88944 38915 ft 418 kts 282°
2026-04-07 16:35 -19.80619 155.82943 38915 ft 419 kts 282°
2026-04-07 16:36 -19.79155 155.76979 38909 ft 420 kts 282°
2026-04-07 16:36 -19.77683 155.70980 38909 ft 420 kts 282°
2026-04-07 16:37 -19.76209 155.64978 38908 ft 419 kts 282°
2026-04-07 16:37 -19.74727 155.58980 38904 ft 419 kts 282°
2026-04-07 16:38 -19.73261 155.53043 38909 ft 419 kts 282°
2026-04-07 16:38 -19.71784 155.47046 38911 ft 420 kts 282°
2026-04-07 16:39 -19.70294 155.41034 38911 ft 420 kts 282°
2026-04-07 16:39 -19.68806 155.35025 38910 ft 420 kts 282°
2026-04-07 16:40 -19.67321 155.29054 38910 ft 420 kts 282°
2026-04-07 16:40 -19.65825 155.23049 38907 ft 421 kts 283°
2026-04-07 16:41 -19.64331 155.17041 38910 ft 421 kts 283°
2026-04-07 16:41 -19.62839 155.11062 38910 ft 421 kts 283°
2026-04-07 16:42 -19.61340 155.05053 38911 ft 420 kts 283°
2026-04-07 16:42 -19.59846 154.99088 38913 ft 421 kts 283°
2026-04-07 16:43 -19.58345 154.93102 38913 ft 416 kts 282°
2026-04-07 16:43 -19.56860 154.87176 38913 ft 419 kts 282°
2026-04-07 16:44 -19.55354 154.81187 38912 ft 419 kts 282°
2026-04-07 16:44 -19.53862 154.75248 38911 ft 419 kts 282°
2026-04-07 16:45 -19.52356 154.69283 38916 ft 419 kts 282°
2026-04-07 16:45 -19.50850 154.63314 38916 ft 419 kts 282°
2026-04-07 16:46 -19.49340 154.57342 38909 ft 419 kts 283°
2026-04-07 16:46 -19.47835 154.51403 38910 ft 419 kts 283°
2026-04-07 16:47 -19.46322 154.45434 38913 ft 418 kts 283°
2026-04-07 16:47 -19.44813 154.39469 38911 ft 418 kts 283°
2026-04-07 16:48 -19.43313 154.33546 38906 ft 418 kts 283°
2026-04-07 16:49 -19.41026 154.24614 38909 ft 418 kts 283°
2026-04-07 16:49 -19.39514 154.18655 38911 ft 418 kts 283°
2026-04-07 16:50 -19.37996 154.12729 38916 ft 418 kts 283°
2026-04-07 16:50 -19.36489 154.06783 38914 ft 418 kts 282°
2026-04-07 16:51 -19.34972 154.00836 38912 ft 418 kts 283°
2026-04-07 16:51 -19.33461 153.94887 38915 ft 418 kts 283°
2026-04-07 16:52 -19.31928 153.88988 38911 ft 418 kts 283°
2026-04-07 16:52 -19.30410 153.83046 38914 ft 418 kts 282°
2026-04-07 16:53 -19.28899 153.77091 38914 ft 418 kts 283°
2026-04-07 16:53 -19.27355 153.71140 38911 ft 418 kts 283°
2026-04-07 16:54 -19.25820 153.65197 38918 ft 419 kts 283°
2026-04-07 16:54 -19.24292 153.59255 38914 ft 420 kts 283°
2026-04-07 16:55 -19.22745 153.53276 38918 ft 421 kts 283°
2026-04-07 16:55 -19.21192 153.47330 38918 ft 421 kts 283°
2026-04-07 16:56 -19.19630 153.41356 38915 ft 421 kts 283°
2026-04-07 16:56 -19.18081 153.35383 38915 ft 421 kts 283°
2026-04-07 16:57 -19.16531 153.29447 38914 ft 420 kts 283°
2026-04-07 16:57 -19.14978 153.23464 38913 ft 420 kts 283°
2026-04-07 16:58 -19.13423 153.17526 38914 ft 420 kts 283°
2026-04-07 16:58 -19.11848 153.11565 38913 ft 421 kts 284°
2026-04-07 16:59 -19.10250 153.05615 38914 ft 420 kts 283°
2026-04-07 16:59 -19.08676 152.99668 38923 ft 419 kts 283°
2026-04-07 17:00 -19.07109 152.93726 38921 ft 419 kts 283°
2026-04-07 17:00 -19.05552 152.87812 38935 ft 420 kts 283°
2026-04-07 17:01 -19.04244 152.82850 38928 ft 420 kts 283°
2026-04-07 17:01 -19.02671 152.76892 38924 ft 420 kts 283°
2026-04-07 17:02 -19.01100 152.70937 38927 ft 420 kts 283°
2026-04-07 17:02 -18.99528 152.65008 38917 ft 420 kts 283°
2026-04-07 17:03 -18.97950 152.59058 38928 ft 420 kts 283°
2026-04-07 17:03 -18.96370 152.53113 38925 ft 420 kts 283°
2026-04-07 17:04 -18.94788 152.47173 38925 ft 420 kts 283°
2026-04-07 17:04 -18.93210 152.41226 38926 ft 420 kts 283°
2026-04-07 17:05 -18.91634 152.35327 38924 ft 420 kts 283°
2026-04-07 17:05 -18.90045 152.29381 38922 ft 420 kts 283°
2026-04-07 17:06 -18.88453 152.23429 38915 ft 422 kts 284°
2026-04-07 17:06 -18.86854 152.17459 38919 ft 422 kts 284°
2026-04-07 17:07 -18.85268 152.11512 38923 ft 422 kts 284°
2026-04-07 17:07 -18.83658 152.05540 38925 ft 422 kts 284°
2026-04-07 17:08 -18.82052 151.99571 38921 ft 422 kts 284°
2026-04-07 17:08 -18.80457 151.93648 38920 ft 422 kts 284°
2026-04-07 17:09 -18.78846 151.87670 38915 ft 424 kts 284°
2026-04-07 17:09 -18.77238 151.81695 38917 ft 422 kts 284°
2026-04-07 17:10 -18.75633 151.75764 38918 ft 422 kts 284°
2026-04-07 17:10 -18.74017 151.69796 38911 ft 423 kts 284°
2026-04-07 17:11 -18.72395 151.63821 38910 ft 422 kts 284°
2026-04-07 17:11 -18.70782 151.57864 38915 ft 423 kts 284°
2026-04-07 17:12 -18.69161 151.51898 38916 ft 423 kts 284°
2026-04-07 17:12 -18.67550 151.45969 38918 ft 423 kts 284°
2026-04-07 17:13 -18.65942 151.40000 38917 ft 422 kts 283°
2026-04-07 17:13 -18.64337 151.34041 38913 ft 422 kts 284°
2026-04-07 17:14 -18.62696 151.28106 38915 ft 425 kts 284°
2026-04-07 17:14 -18.61050 151.22109 38921 ft 423 kts 284°
2026-04-07 17:15 -18.59452 151.16187 38920 ft 423 kts 284°
2026-04-07 17:15 -18.57817 151.10212 38911 ft 423 kts 284°
2026-04-07 17:16 -18.56183 151.04261 38912 ft 421 kts 284°
2026-04-07 17:16 -18.54560 150.98351 38916 ft 423 kts 284°
2026-04-07 17:17 -18.52908 150.92375 38909 ft 425 kts 284°
2026-04-07 17:17 -18.51230 150.86419 38909 ft 423 kts 284°
2026-04-07 17:18 -18.49590 150.80488 38917 ft 424 kts 284°
2026-04-07 17:18 -18.47928 150.74516 38911 ft 424 kts 284°
2026-04-07 17:19 -18.46273 150.68551 38913 ft 425 kts 284°
2026-04-07 17:19 -18.44611 150.62547 38914 ft 424 kts 284°
2026-04-07 17:20 -18.42949 150.56568 38914 ft 425 kts 284°
2026-04-07 17:20 -18.41293 150.50618 38912 ft 424 kts 284°
2026-04-07 17:21 -18.39644 150.44677 38915 ft 424 kts 284°
2026-04-07 17:21 -18.37998 150.38705 38917 ft 423 kts 284°
2026-04-07 17:22 -18.36334 150.32732 38912 ft 424 kts 284°
2026-04-07 17:22 -18.34686 150.26785 38919 ft 425 kts 284°
2026-04-07 17:23 -18.33019 150.20808 38917 ft 424 kts 284°
2026-04-07 17:23 -18.31334 150.14853 38931 ft 428 kts 284°
2026-04-07 17:24 -18.29660 150.08846 38927 ft 427 kts 284°
2026-04-07 17:24 -18.27984 150.02842 38915 ft 426 kts 284°
2026-04-07 17:25 -18.26308 149.96883 38917 ft 428 kts 284°
2026-04-07 17:25 -18.24606 149.90868 38918 ft 426 kts 284°
2026-04-07 17:26 -18.22938 149.84947 38913 ft 426 kts 284°
2026-04-07 17:26 -18.21256 149.78962 38918 ft 426 kts 284°
2026-04-07 17:27 -18.19561 149.72981 38920 ft 428 kts 284°
2026-04-07 17:27 -18.17858 149.66988 38925 ft 426 kts 284°
2026-04-07 17:28 -18.16166 149.61053 38918 ft 428 kts 284°
2026-04-07 17:28 -18.14470 149.55061 38916 ft 429 kts 284°
2026-04-07 17:29 -18.12752 149.49008 38906 ft 431 kts 285°
2026-04-07 17:29 -18.11035 149.43029 38922 ft 428 kts 285°
2026-04-07 17:30 -18.09322 149.37040 38926 ft 427 kts 283°
2026-04-07 17:30 -18.07622 149.31038 38923 ft 429 kts 284°
2026-04-07 17:31 -18.05916 149.25052 38924 ft 425 kts 284°
2026-04-07 17:31 -18.04209 149.19142 38926 ft 425 kts 284°
2026-04-07 17:32 -18.02500 149.13161 38922 ft 424 kts 284°
2026-04-07 17:32 -18.00774 149.07178 38920 ft 430 kts 285°
2026-04-07 17:33 -17.99061 149.01188 38927 ft 425 kts 284°
2026-04-07 17:33 -17.97346 148.95196 38922 ft 429 kts 285°
2026-04-07 17:34 -17.95622 148.89242 38923 ft 427 kts 285°
2026-04-07 17:34 -17.93890 148.83224 38927 ft 432 kts 285°
2026-04-07 17:35 -17.92147 148.77237 38935 ft 426 kts 284°
2026-04-07 17:35 -17.90422 148.71249 38924 ft 431 kts 285°
2026-04-07 17:36 -17.88707 148.65268 38933 ft 429 kts 284°
2026-04-07 17:36 -17.86980 148.59334 38923 ft 425 kts 284°
2026-04-07 17:37 -17.85249 148.53402 38924 ft 425 kts 284°
2026-04-07 17:37 -17.83507 148.47407 38914 ft 428 kts 286°
2026-04-07 17:38 -17.81749 148.41375 38926 ft 429 kts 284°
2026-04-07 17:38 -17.80011 148.35439 38923 ft 427 kts 284°
2026-04-07 17:39 -17.78267 148.29403 38927 ft 432 kts 284°
2026-04-07 17:39 -17.76523 148.23365 38925 ft 431 kts 285°
2026-04-07 17:40 -17.74765 148.17385 38932 ft 430 kts 284°
2026-04-07 17:40 -17.73022 148.11406 38928 ft 429 kts 286°
2026-04-07 17:41 -17.71260 148.05371 38927 ft 430 kts 284°
2026-04-07 17:41 -17.69514 147.99429 38928 ft 431 kts 285°
2026-04-07 17:42 -17.67734 147.93440 38922 ft 428 kts 284°
2026-04-07 17:42 -17.65973 147.87482 38924 ft 427 kts 284°
2026-04-07 17:43 -17.64198 147.81467 38910 ft 433 kts 285°
2026-04-07 17:43 -17.62432 147.75470 38927 ft 428 kts 284°
2026-04-07 17:44 -17.60698 147.69507 38923 ft 431 kts 285°
2026-04-07 17:44 -17.58922 147.63463 38918 ft 434 kts 285°
2026-04-07 17:45 -17.57128 147.57404 38932 ft 433 kts 284°
2026-04-07 17:45 -17.55340 147.51417 38926 ft 428 kts 284°
2026-04-07 17:46 -17.53563 147.45457 38920 ft 432 kts 285°
2026-04-07 17:46 -17.51782 147.39447 38932 ft 431 kts 284°
2026-04-07 17:47 -17.50003 147.33488 38939 ft 428 kts 284°
2026-04-07 17:47 -17.48230 147.27549 38927 ft 429 kts 285°
2026-04-07 17:48 -17.46447 147.21574 38601 ft 427 kts 284°
2026-04-07 17:48 -17.45563 147.18599 38155 ft 427 kts 285°
2026-04-07 17:48 -17.44687 147.15661 37661 ft 426 kts 285°
2026-04-07 17:48 -17.43801 147.12694 37132 ft 426 kts 284°
2026-04-07 17:49 -17.42914 147.09732 36547 ft 427 kts 284°
2026-04-07 17:49 -17.42325 147.07762 36160 ft 428 kts 285°
2026-04-07 17:49 -17.41435 147.04790 35627 ft 428 kts 285°
2026-04-07 17:49 -17.40548 147.01820 35127 ft 427 kts 285°
2026-04-07 17:50 -17.39660 146.98857 34634 ft 425 kts 285°
2026-04-07 17:50 -17.38488 146.94944 33967 ft 424 kts 285°
2026-04-07 17:50 -17.37892 146.92950 33591 ft 423 kts 285°
2026-04-07 17:50 -17.37019 146.90044 33052 ft 422 kts 285°
2026-04-07 17:51 -17.36141 146.87120 32542 ft 419 kts 284°
2026-04-07 17:51 -17.35266 146.84209 32011 ft 418 kts 283°
2026-04-07 17:51 -17.34397 146.81308 31497 ft 417 kts 285°
2026-04-07 17:51 -17.33528 146.78416 30982 ft 416 kts 285°
2026-04-07 17:52 -17.32659 146.75537 30492 ft 414 kts 283°
2026-04-07 17:52 -17.31805 146.72695 30022 ft 413 kts 285°
2026-04-07 17:52 -17.30946 146.69829 29435 ft 412 kts 283°
2026-04-07 17:52 -17.30084 146.66971 28881 ft 411 kts 283°
2026-04-07 17:53 -17.29223 146.64126 28360 ft 409 kts 283°
2026-04-07 17:53 -17.27516 146.58476 27365 ft 404 kts 283°
2026-04-07 17:53 -17.26673 146.55685 26852 ft 402 kts 284°
2026-04-07 17:54 -17.25828 146.52891 26341 ft 401 kts 282°
2026-04-07 17:54 -17.24992 146.50110 25845 ft 399 kts 287°
2026-04-07 17:54 -17.24154 146.47337 25369 ft 397 kts 285°
2026-04-07 17:54 -17.23327 146.44590 24888 ft 396 kts 287°
2026-04-07 17:55 -17.22494 146.41855 24391 ft 392 kts 284°
2026-04-07 17:55 -17.21681 146.39179 23901 ft 389 kts 285°
2026-04-07 17:55 -17.20865 146.36491 23386 ft 386 kts 285°
2026-04-07 17:55 -17.20056 146.33820 22830 ft 383 kts 287°
2026-04-07 17:56 -17.19253 146.31176 22299 ft 379 kts 287°
2026-04-07 17:56 -17.18459 146.28561 21791 ft 374 kts 286°
2026-04-07 17:56 -17.17673 146.25977 21296 ft 370 kts 286°
2026-04-07 17:56 -17.16899 146.23424 20819 ft 366 kts 286°
2026-04-07 17:57 -17.16132 146.20899 20376 ft 362 kts 286°
2026-04-07 17:57 -17.15374 146.18409 19952 ft 358 kts 285°
2026-04-07 17:57 -17.14624 146.15943 19531 ft 354 kts 285°
2026-04-07 17:57 -17.13890 146.13529 19114 ft 350 kts 286°
2026-04-07 17:58 -17.13154 146.11121 18704 ft 347 kts 285°
2026-04-07 17:58 -17.12425 146.08732 18320 ft 343 kts 285°
2026-04-07 17:58 -17.11703 146.06366 17896 ft 340 kts 286°
2026-04-07 17:58 -17.10985 146.04009 17477 ft 340 kts 286°
2026-04-07 17:59 -17.10265 146.01647 17075 ft 341 kts 285°
2026-04-07 17:59 -17.09543 145.99282 16684 ft 342 kts 285°
2026-04-07 17:59 -17.08820 145.96918 16315 ft 341 kts 285°
2026-04-07 17:59 -17.08099 145.94556 15965 ft 341 kts 285°
2026-04-07 18:00 -17.07380 145.92198 15608 ft 340 kts 285°
2026-04-07 18:00 -17.06660 145.89844 15259 ft 339 kts 286°
2026-04-07 18:00 -17.05939 145.87495 14911 ft 339 kts 286°
2026-04-07 18:00 -17.05220 145.85156 14540 ft 338 kts 285°
2026-04-07 18:01 -17.04505 145.82818 14192 ft 337 kts 287°
2026-04-07 18:01 -17.03801 145.80513 13847 ft 337 kts 287°
2026-04-07 18:01 -17.03086 145.78182 13451 ft 337 kts 287°
2026-04-07 18:01 -17.02369 145.75845 13063 ft 336 kts 287°
2026-04-07 18:02 -17.01655 145.73520 12691 ft 336 kts 287°
2026-04-07 18:02 -17.00941 145.71196 12337 ft 334 kts 287°
2026-04-07 18:02 -17.00235 145.68896 11974 ft 330 kts 287°
2026-04-07 18:02 -16.99539 145.66628 11608 ft 324 kts 287°
2026-04-07 18:03 -16.98862 145.64428 11265 ft 319 kts 287°
2026-04-07 18:03 -16.98186 145.62236 10938 ft 314 kts 287°
2026-04-07 18:03 -16.97521 145.60074 10610 ft 309 kts 287°
2026-04-07 18:03 -16.96865 145.57941 10288 ft 307 kts 287°
2026-04-07 18:04 -16.96218 145.55834 9993 ft 307 kts 287°
2026-04-07 18:04 -16.95562 145.53708 9646 ft 308 kts 287°
2026-04-07 18:04 -16.94902 145.51575 9265 ft 306 kts 287°
2026-04-07 18:04 -16.93915 145.49641 8760 ft 307 kts 309°
2026-04-07 18:05 -16.92286 145.48213 8245 ft 307 kts 332°
2026-04-07 18:05 -16.90275 145.47513 7799 ft 302 kts 355°
2026-04-07 18:05 -16.88206 145.47596 7388 ft 295 kts 15°
2026-04-07 18:05 -16.86248 145.48193 6997 ft 291 kts 22°
2026-04-07 18:06 -16.84363 145.48841 6643 ft 288 kts 22°
2026-04-07 18:06 -16.82456 145.49483 6258 ft 286 kts 22°
2026-04-07 18:06 -16.80563 145.50107 5862 ft 284 kts 21°
2026-04-07 18:06 -16.78681 145.50717 5493 ft 281 kts 21°
2026-04-07 18:07 -16.76819 145.51319 5164 ft 279 kts 22°
2026-04-07 18:07 -16.74987 145.51909 5005 ft 270 kts 22°
2026-04-07 18:07 -16.73246 145.52462 4983 ft 254 kts 22°
2026-04-07 18:07 -16.71611 145.52979 4980 ft 237 kts 23°
2026-04-07 18:08 -16.70151 145.53599 4981 ft 216 kts 43°
2026-04-07 18:08 -16.69167 145.54705 5002 ft 205 kts 65°
2026-04-07 18:08 -16.68459 145.55992 5017 ft 204 kts 67°
2026-04-07 18:08 -16.67889 145.57318 4987 ft 196 kts 83°
2026-04-07 18:09 -16.67761 145.58711 4760 ft 191 kts 93°
2026-04-07 18:09 -16.67722 145.60076 4483 ft 190 kts 93°
2026-04-07 18:09 -16.67659 145.61458 4211 ft 191 kts 92°
2026-04-07 18:09 -16.67584 145.62845 4148 ft 191 kts 92°
2026-04-07 18:10 -16.67506 145.64238 4167 ft 192 kts 94°
2026-04-07 18:10 -16.67758 145.65560 4174 ft 185 kts 123°
2026-04-07 18:10 -16.68712 145.66429 3980 ft 185 kts 151°
2026-04-07 18:10 -16.69910 145.66916 3720 ft 184 kts 157°
2026-04-07 18:11 -16.71086 145.67378 3450 ft 181 kts 155°
2026-04-07 18:11 -16.72242 145.67876 3175 ft 178 kts 155°
2026-04-07 18:11 -16.73363 145.68375 2917 ft 172 kts 154°
2026-04-07 18:11 -16.74447 145.68860 2687 ft 167 kts 155°
2026-04-07 18:12 -16.75502 145.69338 2452 ft 161 kts 155°
2026-04-07 18:12 -16.76474 145.69779 2267 ft 146 kts 155°
2026-04-07 18:12 -16.77352 145.70182 2062 ft 128 kts 155°
2026-04-07 18:12 -16.78130 145.70537 1868 ft 120 kts 156°
2026-04-07 18:13 -16.78893 145.70873 1693 ft 119 kts 156°
2026-04-07 18:13 -16.79662 145.71219 1487 ft 122 kts 155°
2026-04-07 18:13 -16.80437 145.71572 1326 ft 121 kts 156°
2026-04-07 18:13 -16.81215 145.71917 1151 ft 121 kts 156°
2026-04-07 18:14 -16.81991 145.72266 1006 ft 121 kts 156°
2026-04-07 18:14 -16.82765 145.72612 842 ft 123 kts 158°
2026-04-07 18:14 -16.83553 145.72968 722 ft 125 kts 156°
2026-04-07 18:14 -16.84358 145.73337 557 ft 125 kts 155°
2026-04-07 18:15 -16.85148 145.73707 360 ft 125 kts 157°
2026-04-07 18:15 -16.85951 145.74060 166 ft 127 kts 156°
2026-04-07 18:15 -16.86764 145.74436 20 ft 127 kts 156°
2026-04-07 18:15 -16.87504 145.74770 20 ft 95 kts 156°
2026-04-07 18:16 -16.87927 145.74963 23 ft 44 kts 155°
2026-04-07 18:16 -16.88178 145.75074 23 ft 23 kts 156°
2026-04-07 18:16 -16.88321 145.75142 24 ft 14 kts 155°
2026-04-07 18:16 -16.88353 145.75235 25 ft 17 kts 65°
2026-04-07 18:17 -16.88273 145.75315 22 ft 19 kts 333°
2026-04-07 18:17 -16.88143 145.75252 22 ft 21 kts 336°
2026-04-07 18:17 -16.88001 145.75188 22 ft 24 kts 337°
2026-04-07 18:17 -16.87843 145.75116 22 ft 26 kts 336°
2026-04-07 18:18 -16.87678 145.75044 22 ft 24 kts 340°
2026-04-07 18:18 -16.87546 145.74989 22 ft 15 kts 337°
2026-04-07 18:18 -16.87434 145.74964 5 ft 18 kts 21°
2026-04-07 18:18 -16.87316 145.75036 7 ft 21 kts 58°
2026-04-07 18:19 -16.87256 145.75179 6 ft 19 kts 66°
2026-04-07 18:19 -16.87199 145.75313 4 ft 22 kts 66°
2026-04-07 18:19 -16.87144 145.75465 4 ft 15 kts 66°
2026-04-07 18:19 -16.87118 145.75525 3 ft 6 kts 66°
2026-04-07 18:20 -16.87108 145.75550 3 ft 5 kts 66°
2026-04-07 18:20 -16.87100 145.75568 5 ft 3 kts 66°
2026-04-07 18:20 -16.87096 145.75577 5 ft 0 kts 65°
2026-04-07 18:21 -16.87092 145.75587 5 ft 3 kts 65°
2026-04-07 18:21 -16.87094 145.75622 5 ft 7 kts 124°
2026-04-07 18:21 -16.87137 145.75647 5 ft 6 kts 156°
2026-04-07 18:21 -16.87154 145.75654 5 ft 1 kts 156°
2026-04-07 18:22 -16.87155 145.75655 5 ft 0 kts 156°